Observation data for Amarillo 7 South Southeast on 12/15/2019      Previous  Date       Current Mesonet Observations  Soil Data  Daily Summary Page  Observations in Plain Language
KAM1 150600Z 15005KT 03/M01 A2973 RMK A01 T00341007  RH  074%=      5-min Rain = 0
KAM1 150601Z 15005KT 03/M01 A2973 RMK A01 T00341008  RH  074%=      5-min Rain = 0
KAM1 150602Z 14006KT 03/M01 A2973 RMK A01 T00341008  RH  074%=      5-min Rain = 0
KAM1 150603Z 14006KT 03/M01 A2973 RMK A01 T00331008  RH  074%=      5-min Rain = 0
KAM1 150604Z 15007KT 03/M01 A2973 RMK A01 T00331008  RH  074%=      5-min Rain = 0
KAM1 150605Z 14005KT 03/M01 A2973 RMK A01 T00331008  RH  075%=      5-min Rain = 0
KAM1 150606Z 14005KT 03/M01 A2973 RMK A01 T00321009  RH  075%=      5-min Rain = 0
KAM1 150607Z 14006KT 03/M01 A2973 RMK A01 T00311009  RH  075%=      5-min Rain = 0
KAM1 150608Z 14007KT 03/M01 A2973 RMK A01 T00311009  RH  075%=      5-min Rain = 0
KAM1 150609Z 14007KT 03/M01 A2973 RMK A01 T00301009  RH  076%=      5-min Rain = 0
KAM1 150610Z 14006KT 03/M01 A2973 RMK A01 T00301008  RH  076%=      5-min Rain = 0
KAM1 150611Z 14006KT 03/M01 A2973 RMK A01 T00301008  RH  076%=      5-min Rain = 0
KAM1 150612Z 15008KT 03/M01 A2973 RMK A01 T00301008  RH  076%=      5-min Rain = 0
KAM1 150613Z 15007KT 03/M01 A2973 RMK A01 T00301008  RH  076%=      5-min Rain = 0
KAM1 150614Z 14007KT 03/M01 A2973 RMK A01 T00301008  RH  076%=      5-min Rain = 0
KAM1 150615Z 15007KT 03/M01 A2973 RMK A01 T00301009  RH  076%=      5-min Rain = 0
KAM1 150616Z 14008KT 03/M01 A2973 RMK A01 T00291009  RH  076%=      5-min Rain = 0
KAM1 150617Z 15008KT 03/M01 A2973 RMK A01 T00291009  RH  076%=      5-min Rain = 0
KAM1 150618Z 15009KT 03/M01 A2973 RMK A01 T00291008  RH  076%=      5-min Rain = 0
KAM1 150619Z 15008KT 03/M01 A2973 RMK A01 T00291008  RH  077%=      5-min Rain = 0
KAM1 150620Z 15008KT 03/M01 A2973 RMK A01 T00291008  RH  076%=      5-min Rain = 0
KAM1 150621Z 15008KT 03/M01 A2973 RMK A01 T00281010  RH  076%=      5-min Rain = 0
KAM1 150622Z 15008KT 03/M01 A2973 RMK A01 T00261011  RH  077%=      5-min Rain = 0
KAM1 150623Z 16008KT 03/M01 A2973 RMK A01 T00251011  RH  077%=      5-min Rain = 0
KAM1 150624Z 16008KT 03/M01 A2973 RMK A01 T00251011  RH  077%=      5-min Rain = 0
KAM1 150625Z 16009KT 02/M01 A2973 RMK A01 T00241011  RH  078%=      5-min Rain = 0
KAM1 150626Z 16008KT 02/M01 A2973 RMK A01 T00241010  RH  078%=      5-min Rain = 0
KAM1 150627Z 16008KT 02/M01 A2973 RMK A01 T00241010  RH  078%=      5-min Rain = 0
KAM1 150628Z 16008KT 03/M01 A2973 RMK A01 T00251010  RH  078%=      5-min Rain = 0
KAM1 150629Z 16009KT 02/M01 A2973 RMK A01 T00241010  RH  078%=      5-min Rain = 0
KAM1 150630Z 16009KT 02/M01 A2972 RMK A01 T00241010  RH  078%=      5-min Rain = 0
KAM1 150631Z 16009KT 03/M01 A2972 RMK A01 T00251009  RH  078%=      5-min Rain = 0
KAM1 150632Z 15008KT 02/M01 A2972 RMK A01 T00241009  RH  078%=      5-min Rain = 0
KAM1 150633Z 16007KT 02/M01 A2972 RMK A01 T00241009  RH  078%=      5-min Rain = 0
KAM1 150634Z 16007KT 02/M01 A2972 RMK A01 T00241009  RH  078%=      5-min Rain = 0
KAM1 150635Z 16007KT 02/M01 A2972 RMK A01 T00241010  RH  078%=      5-min Rain = 0
KAM1 150636Z 16007KT 02/M01 A2972 RMK A01 T00231011  RH  079%=      5-min Rain = 0
KAM1 150637Z 16007KT 02/M01 A2972 RMK A01 T00221011  RH  079%=      5-min Rain = 0
KAM1 150638Z 16008KT 02/M01 A2972 RMK A01 T00221011  RH  079%=      5-min Rain = 0
KAM1 150639Z 16008KT 02/M01 A2972 RMK A01 T00221010  RH  079%=      5-min Rain = 0
KAM1 150640Z 16009KT 02/M01 A2972 RMK A01 T00221010  RH  079%=      5-min Rain = 0
KAM1 150641Z 16009KT 02/M01 A2972 RMK A01 T00221010  RH  080%=      5-min Rain = 0
KAM1 150642Z 16009KT 02/M01 A2972 RMK A01 T00221010  RH  079%=      5-min Rain = 0
KAM1 150643Z 16009KT 02/M01 A2972 RMK A01 T00221009  RH  080%=      5-min Rain = 0
KAM1 150644Z 16009KT 02/M01 A2972 RMK A01 T00221009  RH  080%=      5-min Rain = 0
KAM1 150645Z 16009KT 02/M01 A2972 RMK A01 T00231009  RH  080%=      5-min Rain = 0
KAM1 150646Z 16010KT 02/M01 A2972 RMK A01 T00231009  RH  079%=      5-min Rain = 0
KAM1 150647Z 15010KT 02/M01 A2972 RMK A01 T00231009  RH  080%=      5-min Rain = 0
KAM1 150648Z 16009KT 02/M01 A2972 RMK A01 T00231009  RH  080%=      5-min Rain = 0
KAM1 150649Z 15009KT 02/M01 A2972 RMK A01 T00231008  RH  080%=      5-min Rain = 0
KAM1 150650Z 15010KT 02/M01 A2971 RMK A01 T00241008  RH  080%=      5-min Rain = 0
KAM1 150651Z 16008KT 03/M01 A2972 RMK A01 T00251007  RH  080%=      5-min Rain = 0
KAM1 150652Z 16008KT 03/M01 A2972 RMK A01 T00251007  RH  079%=      5-min Rain = 0
KAM1 150653Z 16008KT 03/M01 A2972 RMK A01 T00251008  RH  079%=      5-min Rain = 0
KAM1 150654Z 16007KT 03/M01 A2972 RMK A01 T00251008  RH  079%=      5-min Rain = 0
KAM1 150655Z 16008KT 03/M01 A2972 RMK A01 T00251008  RH  079%=      5-min Rain = 0
KAM1 150656Z 16007KT 03/M01 A2972 RMK A01 T00251008  RH  079%=      5-min Rain = 0
KAM1 150657Z 16007KT 03/M01 A2972 RMK A01 T00251008  RH  079%=      5-min Rain = 0
KAM1 150658Z 16007KT 03/M01 A2972 RMK A01 T00251008  RH  079%=      5-min Rain = 0
KAM1 150659Z 16006KT 03/M01 A2972 RMK A01 T00251008  RH  079%=      5-min Rain = 0
KAM1 150700Z 17007KT 02/M01 A2972 RMK A01 T00241008  RH  079%=      5-min Rain = 0
KAM1 150701Z 16006KT 03/M01 A2972 RMK A01 T00251008  RH  079%=      5-min Rain = 0
KAM1 150702Z 17006KT 02/M01 A2972 RMK A01 T00241008  RH  079%=      5-min Rain = 0
KAM1 150703Z 16006KT 02/M01 A2972 RMK A01 T00241008  RH  079%=      5-min Rain = 0
KAM1 150704Z 16006KT 02/M01 A2972 RMK A01 T00241008  RH  079%=      5-min Rain = 0
KAM1 150705Z 16006KT 02/M01 A2972 RMK A01 T00241008  RH  080%=      5-min Rain = 0
KAM1 150706Z 15006KT 02/M01 A2972 RMK A01 T00231009  RH  079%=      5-min Rain = 0
KAM1 150707Z 16006KT 02/M01 A2971 RMK A01 T00231009  RH  080%=      5-min Rain = 0
KAM1 150708Z 15006KT 02/M01 A2971 RMK A01 T00221009  RH  080%=      5-min Rain = 0
KAM1 150709Z 15006KT 02/M01 A2971 RMK A01 T00221010  RH  080%=      5-min Rain = 0
KAM1 150710Z 15006KT 02/M01 A2971 RMK A01 T00211010  RH  080%=      5-min Rain = 0
KAM1 150711Z 16006KT 02/M01 A2971 RMK A01 T00201011  RH  080%=      5-min Rain = 0
KAM1 150712Z 16006KT 02/M01 A2971 RMK A01 T00201011  RH  080%=      5-min Rain = 0
KAM1 150713Z 16006KT 02/M01 A2971 RMK A01 T00191011  RH  081%=      5-min Rain = 0
KAM1 150714Z 16006KT 02/M01 A2971 RMK A01 T00181011  RH  081%=      5-min Rain = 0
KAM1 150715Z 16006KT 02/M01 A2971 RMK A01 T00181012  RH  081%=      5-min Rain = 0
KAM1 150716Z 15006KT 02/M01 A2971 RMK A01 T00171012  RH  081%=      5-min Rain = 0
KAM1 150717Z 16005KT 02/M01 A2971 RMK A01 T00161012  RH  082%=      5-min Rain = 0
KAM1 150718Z 16006KT 02/M01 A2971 RMK A01 T00161012  RH  082%=      5-min Rain = 0
KAM1 150719Z 15006KT 02/M01 A2971 RMK A01 T00161011  RH  082%=      5-min Rain = 0
KAM1 150720Z 15006KT 02/M01 A2971 RMK A01 T00161011  RH  082%=      5-min Rain = 0
KAM1 150721Z 15006KT 02/M01 A2971 RMK A01 T00151011  RH  083%=      5-min Rain = 0
KAM1 150722Z 15006KT 02/M01 A2971 RMK A01 T00151011  RH  083%=      5-min Rain = 0
KAM1 150723Z 15007KT 01/M01 A2971 RMK A01 T00141011  RH  083%=      5-min Rain = 0
KAM1 150724Z 15007KT 01/M01 A2971 RMK A01 T00141010  RH  084%=      5-min Rain = 0
KAM1 150725Z 15007KT 01/M01 A2971 RMK A01 T00141010  RH  084%=      5-min Rain = 0
KAM1 150726Z 16007KT 01/M01 A297 RMK A01 T00141009  RH  085%=      5-min Rain = 0
KAM1 150727Z 15007KT 01/M01 A297 RMK A01 T00141010  RH  084%=      5-min Rain = 0
KAM1 150728Z 16007KT 01/M01 A297 RMK A01 T00141010  RH  084%=      5-min Rain = 0
KAM1 150729Z 16007KT 01/M01 A297 RMK A01 T00131011  RH  084%=      5-min Rain = 0
KAM1 150730Z 16007KT 01/M01 A297 RMK A01 T00121011  RH  084%=      5-min Rain = 0
KAM1 150731Z 16007KT 01/M01 A297 RMK A01 T00121011  RH  085%=      5-min Rain = 0
KAM1 150732Z 16007KT 01/M01 A297 RMK A01 T00111011  RH  085%=      5-min Rain = 0
KAM1 150733Z 16007KT 01/M01 A297 RMK A01 T00111011  RH  085%=      5-min Rain = 0
KAM1 150734Z 16006KT 01/M01 A2971 RMK A01 T00111010  RH  085%=      5-min Rain = 0
KAM1 150735Z 16006KT 01/M01 A2971 RMK A01 T00111011  RH  086%=      5-min Rain = 0
KAM1 150736Z 17005KT 01/M01 A2971 RMK A01 T00111011  RH  086%=      5-min Rain = 0
KAM1 150737Z 17005KT 01/M01 A2971 RMK A01 T00111011  RH  085%=      5-min Rain = 0
KAM1 150738Z 17005KT 01/M01 A2971 RMK A01 T00101011  RH  086%=      5-min Rain = 0
KAM1 150739Z 17005KT 01/M01 A2971 RMK A01 T00101011  RH  086%=      5-min Rain = 0
KAM1 150740Z 17005KT 01/M01 A2971 RMK A01 T00101011  RH  086%=      5-min Rain = 0
KAM1 150741Z 17006KT 01/M01 A2971 RMK A01 T00101012  RH  086%=      5-min Rain = 0
KAM1 150742Z 17005KT 01/M01 A2971 RMK A01 T00101011  RH  086%=      5-min Rain = 0
KAM1 150743Z 17005KT 01/M01 A2971 RMK A01 T00101011  RH  086%=      5-min Rain = 0
KAM1 150744Z 16005KT 01/M01 A297 RMK A01 T00101011  RH  086%=      5-min Rain = 0
KAM1 150745Z 16006KT 01/M01 A297 RMK A01 T00091012  RH  086%=      5-min Rain = 0
KAM1 150746Z 16005KT 01/M01 A297 RMK A01 T00091012  RH  086%=      5-min Rain = 0
KAM1 150747Z 16004KT 01/M01 A297 RMK A01 T00091012  RH  086%=      5-min Rain = 0
KAM1 150748Z 16004KT 01/M01 A297 RMK A01 T00091012  RH  086%=      5-min Rain = 0
KAM1 150749Z 16003KT 01/M01 A297 RMK A01 T00081013  RH  086%=      5-min Rain = 0
KAM1 150750Z 16003KT 01/M01 A297 RMK A01 T00081013  RH  086%=      5-min Rain = 0
KAM1 150751Z 16003KT 01/M01 A297 RMK A01 T00071012  RH  087%=      5-min Rain = 0
KAM1 150752Z 16003KT 01/M01 A297 RMK A01 T00071011  RH  088%=      5-min Rain = 0
KAM1 150753Z 16003KT 01/M01 A297 RMK A01 T00071010  RH  088%=      5-min Rain = 0
KAM1 150754Z 16003KT 01/M01 A297 RMK A01 T00071010  RH  088%=      5-min Rain = 0
KAM1 150755Z 16003KT 01/M01 A297 RMK A01 T00071010  RH  088%=      5-min Rain = 0
KAM1 150756Z 17003KT 01/M01 A297 RMK A01 T00081010  RH  088%=      5-min Rain = 0
KAM1 150757Z 17003KT 01/M01 A297 RMK A01 T00071010  RH  088%=      5-min Rain = 0
KAM1 150758Z 17003KT 01/M01 A297 RMK A01 T00081011  RH  087%=      5-min Rain = 0
KAM1 150759Z 18003KT 01/M01 A2971 RMK A01 T00081011  RH  087%=      5-min Rain = 0
KAM1 150800Z 18002KT 01/M01 A2971 RMK A01 T00081009  RH  088%=      5-min Rain = 0
KAM1 150801Z 18002KT 01/M01 A2971 RMK A01 T00081010  RH  088%=      5-min Rain = 0
KAM1 150802Z 19002KT 01/M01 A297 RMK A01 T00081010  RH  088%=      5-min Rain = 0
KAM1 150803Z 19001KT 01/M01 A2971 RMK A01 T00081009  RH  089%=      5-min Rain = 0
KAM1 150804Z 19001KT 01/M01 A2971 RMK A01 T00071008  RH  089%=      5-min Rain = 0
KAM1 150805Z 19001KT 01/M01 A297 RMK A01 T00071008  RH  089%=      5-min Rain = 0
KAM1 150806Z 18001KT 01/M01 A297 RMK A01 T00061010  RH  089%=      5-min Rain = 0
KAM1 150807Z 18002KT 01/M01 A297 RMK A01 T00051011  RH  089%=      5-min Rain = 0
KAM1 150808Z 18002KT 00/M01 A297 RMK A01 T00041012  RH  089%=      5-min Rain = 0
KAM1 150809Z 18002KT 00/M01 A297 RMK A01 T00041011  RH  090%=      5-min Rain = 0
KAM1 150810Z 18003KT 00/M01 A297 RMK A01 T00041010  RH  091%=      5-min Rain = 0
KAM1 150811Z 18003KT 00/M01 A297 RMK A01 T00031009  RH  091%=      5-min Rain = 0
KAM1 150812Z 18004KT 00/M01 A297 RMK A01 T00031009  RH  092%=      5-min Rain = 0
KAM1 150813Z 19004KT 00/M01 A297 RMK A01 T00031009  RH  092%=      5-min Rain = 0
KAM1 150814Z 18004KT 00/M01 A297 RMK A01 T00031009  RH  091%=      5-min Rain = 0
KAM1 150815Z 18004KT 00/M01 A297 RMK A01 T00021011  RH  091%=      5-min Rain = 0
KAM1 150816Z 18004KT 00/M01 A297 RMK A01 T00011012  RH  091%=      5-min Rain = 0
KAM1 150817Z 18004KT 00/01 A297 RMK A01 T00000-12  RH  092%=      5-min Rain = 0
KAM1 150818Z 18005KT M00/M01 A297 RMK A01 T10011012  RH  092%=      5-min Rain = 0
KAM1 150819Z 18005KT M00/M01 A297 RMK A01 T10021012  RH  093%=      5-min Rain = 0
KAM1 150820Z 18005KT M00/M01 A297 RMK A01 T10031013  RH  092%=      5-min Rain = 0
KAM1 150821Z 18005KT M00/M01 A297 RMK A01 T10031013  RH  093%=      5-min Rain = 0
KAM1 150822Z 18005KT M00/M01 A297 RMK A01 T10041013  RH  093%=      5-min Rain = 0
KAM1 150823Z 17005KT M00/M01 A297 RMK A01 T10041014  RH  093%=      5-min Rain = 0
KAM1 150824Z 17006KT M01/M01 A297 RMK A01 T10051014  RH  094%=      5-min Rain = 0
KAM1 150825Z 17006KT M01/M01 A297 RMK A01 T10051014  RH  094%=      5-min Rain = 0
KAM1 150826Z 17007KT M01/M01 A297 RMK A01 T10051013  RH  094%=      5-min Rain = 0
KAM1 150827Z 17006KT M01/M02 A297 RMK A01 T10061015  RH  093%=      5-min Rain = 0
KAM1 150828Z 18006KT M01/M02 A297 RMK A01 T10071017  RH  093%=      5-min Rain = 0
KAM1 150829Z 18005KT M01/M02 A297 RMK A01 T10081018  RH  093%=      5-min Rain = 0
KAM1 150830Z 18005KT M01/M02 A297 RMK A01 T10081016  RH  094%=      5-min Rain = 0
KAM1 150831Z 17005KT M01/M02 A297 RMK A01 T10081015  RH  095%=      5-min Rain = 0
KAM1 150832Z 17005KT M01/M01 A297 RMK A01 T10081014  RH  096%=      5-min Rain = 0
KAM1 150833Z 17005KT M01/M01 A297 RMK A01 T10091013  RH  097%=      5-min Rain = 0
KAM1 150834Z 18005KT M01/M01 A297 RMK A01 T10081013  RH  097%=      5-min Rain = 0
KAM1 150835Z 17004KT M01/M01 A297 RMK A01 T10081012  RH  097%=      5-min Rain = 0
KAM1 150836Z 18004KT M01/M01 A297 RMK A01 T10081012  RH  097%=      5-min Rain = 0
KAM1 150837Z 18003KT M01/M01 A297 RMK A01 T10081011  RH  097%=      5-min Rain = 0
KAM1 150838Z 18002KT M01/M01 A297 RMK A01 T10081011  RH  098%=      5-min Rain = 0
KAM1 150839Z 19001KT M01/M01 A297 RMK A01 T10091012  RH  097%=      5-min Rain = 0
KAM1 150840Z 22000KT M01/M01 A2971 RMK A01 T10091013  RH  097%=      5-min Rain = 0
KAM1 150841Z 27001KT M01/M02 A2971 RMK A01 T10111017  RH  096%=      5-min Rain = 0
KAM1 150842Z 29002KT M02/M02 A2971 RMK A01 T10151023  RH  094%=      5-min Rain = 0
KAM1 150843Z 29003KT M02/M03 A2971 RMK A01 T10181027  RH  094%=      5-min Rain = 0
KAM1 150844Z 31003KT M02/M03 A2971 RMK A01 T10211028  RH  095%=      5-min Rain = 0
KAM1 150845Z 31003KT M02/M03 A2971 RMK A01 T10231029  RH  095%=      5-min Rain = 0
KAM1 150846Z 31004KT M02/M03 A2971 RMK A01 T10241030  RH  096%=      5-min Rain = 0
KAM1 150847Z 30004KT M03/M03 A2971 RMK A01 T10251029  RH  097%=      5-min Rain = 0
KAM1 150848Z 29003KT M03/M03 A2971 RMK A01 T10261029  RH  098%=      5-min Rain = 0
KAM1 150849Z 28003KT M03/M03 A297 RMK A01 T10261028  RH  099%=      5-min Rain = 0
KAM1 150850Z 28002KT M03/M03 A297 RMK A01 T10261027  RH  100%=      5-min Rain = 0
KAM1 150851Z 27002KT M03/M03 A297 RMK A01 T10251025  RH  100%=      5-min Rain = 0
KAM1 150852Z 28003KT M02/M03 A297 RMK A01 T10241025  RH  100%=      5-min Rain = 0
KAM1 150853Z 29004KT M02/M02 A297 RMK A01 T10241024  RH  100%=      5-min Rain = 0
KAM1 150854Z 28004KT M02/M03 A297 RMK A01 T10241025  RH  100%=      5-min Rain = 0
KAM1 150855Z 28004KT M03/M03 A297 RMK A01 T10251025  RH  100%=      5-min Rain = 0
KAM1 150856Z 27003KT M03/M03 A297 RMK A01 T10251025  RH  100%=      5-min Rain = 0
KAM1 150857Z 27003KT M03/M03 A297 RMK A01 T10251025  RH  100%=      5-min Rain = 0
KAM1 150858Z 27004KT M03/M03 A2971 RMK A01 T10251025  RH  100%=      5-min Rain = 0
KAM1 150859Z 27004KT M02/M02 A2971 RMK A01 T10241024  RH  100%=      5-min Rain = 0
KAM1 150900Z 28005KT M02/M02 A2971 RMK A01 T10231023  RH  100%=      5-min Rain = 0
KAM1 150901Z 27005KT M02/M02 A2971 RMK A01 T10231023  RH  100%=      5-min Rain = 0
KAM1 150902Z 27004KT M02/M02 A2971 RMK A01 T10231024  RH  100%=      5-min Rain = 0
KAM1 150903Z 26004KT M02/M02 A2971 RMK A01 T10231023  RH  100%=      5-min Rain = 0
KAM1 150904Z 24003KT M02/M02 A2971 RMK A01 T10231023  RH  100%=      5-min Rain = 0
KAM1 150905Z 23003KT M02/M02 A297 RMK A01 T10231023  RH  100%=      5-min Rain = 0
KAM1 150906Z 22003KT M02/M02 A297 RMK A01 T10231023  RH  100%=      5-min Rain = 0
KAM1 150907Z 21003KT M02/M02 A297 RMK A01 T10231023  RH  100%=      5-min Rain = 0
KAM1 150908Z 20004KT M02/M02 A297 RMK A01 T10231023  RH  100%=      5-min Rain = 0
KAM1 150909Z 20004KT M02/M02 A297 RMK A01 T10231023  RH  100%=      5-min Rain = 0
KAM1 150910Z 21004KT M02/M02 A297 RMK A01 T10231023  RH  100%=      5-min Rain = 0
KAM1 150911Z 21004KT M02/M02 A297 RMK A01 T10221022  RH  100%=      5-min Rain = 0
KAM1 150912Z 21005KT M02/M02 A297 RMK A01 T10221022  RH  100%=      5-min Rain = 0
KAM1 150913Z 21005KT M02/M02 A297 RMK A01 T10231023  RH  100%=      5-min Rain = 0
KAM1 150914Z 21005KT M02/M02 A297 RMK A01 T10241024  RH  100%=      5-min Rain = 0
KAM1 150915Z 21005KT M03/M03 A297 RMK A01 T10251025  RH  100%=      5-min Rain = 0
KAM1 150916Z 21005KT M03/M03 A297 RMK A01 T10261026  RH  100%=      5-min Rain = 0
KAM1 150917Z 21005KT M03/M03 A297 RMK A01 T10261026  RH  100%=      5-min Rain = 0
KAM1 150918Z 21006KT M03/M03 A297 RMK A01 T10261026  RH  100%=      5-min Rain = 0
KAM1 150919Z 21006KT M03/M03 A297 RMK A01 T10261027  RH  100%=      5-min Rain = 0
KAM1 150920Z 21006KT M03/M03 A297 RMK A01 T10271027  RH  100%=      5-min Rain = 0
KAM1 150921Z 21006KT M03/M03 A297 RMK A01 T10271027  RH  100%=      5-min Rain = 0
KAM1 150922Z 20006KT M03/M03 A297 RMK A01 T10281028  RH  100%=      5-min Rain = 0
KAM1 150923Z 20006KT M03/M03 A297 RMK A01 T10271027  RH  100%=      5-min Rain = 0
KAM1 150924Z 20006KT M03/M03 A297 RMK A01 T10261027  RH  100%=      5-min Rain = 0
KAM1 150925Z 20006KT M03/M03 A297 RMK A01 T10261026  RH  100%=      5-min Rain = 0
KAM1 150926Z 21006KT M03/M03 A297 RMK A01 T10251025  RH  100%=      5-min Rain = 0
KAM1 150927Z 21005KT M03/M03 A297 RMK A01 T10251025  RH  100%=      5-min Rain = 0
KAM1 150928Z 21005KT M02/M02 A297 RMK A01 T10241024  RH  100%=      5-min Rain = 0
KAM1 150929Z 21006KT M02/M02 A297 RMK A01 T10241024  RH  100%=      5-min Rain = 0
KAM1 150930Z 20006KT M02/M02 A297 RMK A01 T10231023  RH  100%=      5-min Rain = 0
KAM1 150931Z 21006KT M02/M02 A297 RMK A01 T10231023  RH  100%=      5-min Rain = 0
KAM1 150932Z 21006KT M02/M02 A297 RMK A01 T10221022  RH  100%=      5-min Rain = 0
KAM1 150933Z 21006KT M02/M02 A297 RMK A01 T10221022  RH  100%=      5-min Rain = 0
KAM1 150934Z 21005KT M02/M02 A297 RMK A01 T10211021  RH  100%=      5-min Rain = 0
KAM1 150935Z 21005KT M02/M02 A297 RMK A01 T10211021  RH  100%=      5-min Rain = 0
KAM1 150936Z 22005KT M02/M02 A297 RMK A01 T10211021  RH  100%=      5-min Rain = 0
KAM1 150937Z 20005KT M02/M02 A297 RMK A01 T10211021  RH  100%=      5-min Rain = 0
KAM1 150938Z 19006KT M02/M02 A297 RMK A01 T10201020  RH  100%=      5-min Rain = 0
KAM1 150939Z 20006KT M02/M02 A297 RMK A01 T10191019  RH  100%=      5-min Rain = 0
KAM1 150940Z 20005KT M02/M02 A297 RMK A01 T10191019  RH  100%=      5-min Rain = 0
KAM1 150941Z 21005KT M02/M02 A297 RMK A01 T10181018  RH  100%=      5-min Rain = 0
KAM1 150942Z 20005KT M02/M02 A297 RMK A01 T10181018  RH  100%=      5-min Rain = 0
KAM1 150943Z 20005KT M02/M02 A297 RMK A01 T10171017  RH  100%=      5-min Rain = 0
KAM1 150944Z 20005KT M02/M02 A297 RMK A01 T10161016  RH  100%=      5-min Rain = 0
KAM1 150945Z 19005KT M02/M02 A297 RMK A01 T10151015  RH  100%=      5-min Rain = 0
KAM1 150946Z 20005KT M01/M01 A297 RMK A01 T10141014  RH  100%=      5-min Rain = 0
KAM1 150947Z 20005KT M01/M01 A297 RMK A01 T10141014  RH  100%=      5-min Rain = 0
KAM1 150948Z 20005KT M01/M01 A297 RMK A01 T10131013  RH  100%=      5-min Rain = 0
KAM1 150949Z 19005KT M01/M01 A297 RMK A01 T10121012  RH  100%=      5-min Rain = 0
KAM1 150950Z 19006KT M01/M01 A297 RMK A01 T10121012  RH  100%=      5-min Rain = 0
KAM1 150951Z 19005KT M01/M01 A297 RMK A01 T10111011  RH  100%=      5-min Rain = 0
KAM1 150952Z 20004KT M01/M01 A297 RMK A01 T10101011  RH  100%=      5-min Rain = 0
KAM1 150953Z 21002KT M01/M01 A297 RMK A01 T10101010  RH  100%=      5-min Rain = 0
KAM1 150954Z 22001KT M01/M01 A297 RMK A01 T10101010  RH  100%=      5-min Rain = 0
KAM1 150955Z 19002KT M01/M01 A297 RMK A01 T10101010  RH  100%=      5-min Rain = 0
KAM1 150956Z 19002KT M01/M01 A297 RMK A01 T10101010  RH  100%=      5-min Rain = 0
KAM1 150957Z 19001KT M01/M01 A297 RMK A01 T10121012  RH  100%=      5-min Rain = 0
KAM1 150958Z 19002KT M01/M01 A297 RMK A01 T10131014  RH  100%=      5-min Rain = 0
KAM1 150959Z 19002KT M01/M01 A297 RMK A01 T10141014  RH  100%=      5-min Rain = 0
KAM1 151000Z 20002KT M02/M02 A297 RMK A01 T10151015  RH  100%=      5-min Rain = 0
KAM1 151001Z 20002KT M02/M02 A297 RMK A01 T10151015  RH  100%=      5-min Rain = 0
KAM1 151002Z 20002KT M02/M02 A297 RMK A01 T10151015  RH  100%=      5-min Rain = 0
KAM1 151003Z 19003KT M02/M02 A297 RMK A01 T10151015  RH  100%=      5-min Rain = 0
KAM1 151004Z 19003KT M01/M01 A297 RMK A01 T10141014  RH  100%=      5-min Rain = 0
KAM1 151005Z 19003KT M01/M01 A297 RMK A01 T10131013  RH  100%=      5-min Rain = 0
KAM1 151006Z 20003KT M01/M01 A297 RMK A01 T10121012  RH  100%=      5-min Rain = 0
KAM1 151007Z 20003KT M01/M01 A2969 RMK A01 T10121012  RH  100%=      5-min Rain = 0
KAM1 151008Z 20003KT M01/M01 A2969 RMK A01 T10121012  RH  100%=      5-min Rain = 0
KAM1 151009Z 19002KT M01/M01 A2969 RMK A01 T10121012  RH  100%=      5-min Rain = 0
KAM1 151010Z 19003KT M01/M01 A2969 RMK A01 T10121012  RH  100%=      5-min Rain = 0
KAM1 151011Z 19004KT M01/M01 A2969 RMK A01 T10111011  RH  100%=      5-min Rain = 0
KAM1 151012Z 18004KT M01/M01 A2969 RMK A01 T10101010  RH  100%=      5-min Rain = 0
KAM1 151013Z 19004KT M01/M01 A2969 RMK A01 T10091009  RH  100%=      5-min Rain = 0
KAM1 151014Z 18004KT M01/M01 A2969 RMK A01 T10091009  RH  100%=      5-min Rain = 0
KAM1 151015Z 19004KT M01/M01 A2969 RMK A01 T10091009  RH  100%=      5-min Rain = 0
KAM1 151016Z 18004KT M01/M01 A2969 RMK A01 T10091009  RH  100%=      5-min Rain = 0
KAM1 151017Z 18004KT M01/M01 A2969 RMK A01 T10091009  RH  100%=      5-min Rain = 0
KAM1 151018Z 18004KT M01/M01 A2969 RMK A01 T10091009  RH  100%=      5-min Rain = 0
KAM1 151019Z 18004KT M01/M01 A2969 RMK A01 T10091009  RH  100%=      5-min Rain = 0
KAM1 151020Z 18004KT M01/M01 A2969 RMK A01 T10091009  RH  100%=      5-min Rain = 0
KAM1 151021Z 18004KT M01/M01 A2969 RMK A01 T10091009  RH  100%=      5-min Rain = 0
KAM1 151022Z 18005KT M01/M01 A2969 RMK A01 T10091009  RH  100%=      5-min Rain = 0
KAM1 151023Z 18005KT M01/M01 A2969 RMK A01 T10091009  RH  100%=      5-min Rain = 0
KAM1 151024Z 18005KT M01/M01 A2969 RMK A01 T10091009  RH  100%=      5-min Rain = 0
KAM1 151025Z 18005KT M01/M01 A2969 RMK A01 T10091009  RH  100%=      5-min Rain = 0
KAM1 151026Z 18005KT M01/M01 A2969 RMK A01 T10091009  RH  100%=      5-min Rain = 0
KAM1 151027Z 18006KT M01/M01 A2969 RMK A01 T10091009  RH  100%=      5-min Rain = 0
KAM1 151028Z 18006KT M01/M01 A2969 RMK A01 T10101010  RH  100%=      5-min Rain = 0
KAM1 151029Z 18006KT M01/M01 A2969 RMK A01 T10101010  RH  100%=      5-min Rain = 0
KAM1 151030Z 18006KT M01/M01 A2969 RMK A01 T10101010  RH  100%=      5-min Rain = 0
KAM1 151031Z 18005KT M01/M01 A2969 RMK A01 T10101010  RH  100%=      5-min Rain = 0
KAM1 151032Z 18005KT M01/M01 A2969 RMK A01 T10101010  RH  100%=      5-min Rain = 0
KAM1 151033Z 18005KT M01/M01 A2969 RMK A01 T10101010  RH  100%=      5-min Rain = 0
KAM1 151034Z 18005KT M01/M01 A2969 RMK A01 T10101010  RH  100%=      5-min Rain = 0
KAM1 151035Z 18005KT M01/M01 A2969 RMK A01 T10101010  RH  100%=      5-min Rain = 0
KAM1 151036Z 17005KT M01/M01 A2969 RMK A01 T10091009  RH  100%=      5-min Rain = 0
KAM1 151037Z 18005KT M01/M01 A2969 RMK A01 T10091010  RH  100%=      5-min Rain = 0
KAM1 151038Z 17005KT M01/M01 A2969 RMK A01 T10091009  RH  100%=      5-min Rain = 0
KAM1 151039Z 17005KT M01/M01 A2969 RMK A01 T10091009  RH  100%=      5-min Rain = 0
KAM1 151040Z 18005KT M01/M01 A2969 RMK A01 T10091009  RH  100%=      5-min Rain = 0
KAM1 151041Z 17005KT M01/M01 A2969 RMK A01 T10091009  RH  100%=      5-min Rain = 0
KAM1 151042Z 17005KT M01/M01 A2969 RMK A01 T10091009  RH  100%=      5-min Rain = 0
KAM1 151043Z 17005KT M01/M01 A2969 RMK A01 T10091009  RH  100%=      5-min Rain = 0
KAM1 151044Z 17005KT M01/M01 A2969 RMK A01 T10081008  RH  100%=      5-min Rain = 0
KAM1 151045Z 18005KT M01/M01 A2969 RMK A01 T10081008  RH  100%=      5-min Rain = 0
KAM1 151046Z 17005KT M01/M01 A2969 RMK A01 T10081008  RH  100%=      5-min Rain = 0
KAM1 151047Z 17005KT M01/M01 A2969 RMK A01 T10081008  RH  100%=      5-min Rain = 0
KAM1 151048Z 17005KT M01/M01 A2969 RMK A01 T10081008  RH  100%=      5-min Rain = 0
KAM1 151049Z 17005KT M01/M01 A2969 RMK A01 T10081008  RH  100%=      5-min Rain = 0
KAM1 151050Z 17005KT M01/M01 A2969 RMK A01 T10081008  RH  100%=      5-min Rain = 0
KAM1 151051Z 18005KT M01/M01 A2969 RMK A01 T10081008  RH  100%=      5-min Rain = 0
KAM1 151052Z 17005KT M01/M01 A2969 RMK A01 T10081008  RH  100%=      5-min Rain = 0
KAM1 151053Z 18005KT M01/M01 A2969 RMK A01 T10081009  RH  100%=      5-min Rain = 0
KAM1 151054Z 18005KT M01/M01 A2969 RMK A01 T10081008  RH  100%=      5-min Rain = 0
KAM1 151055Z 18005KT M01/M01 A2969 RMK A01 T10081009  RH  100%=      5-min Rain = 0
KAM1 151056Z 18005KT M01/M01 A2969 RMK A01 T10081008  RH  100%=      5-min Rain = 0
KAM1 151057Z 18005KT M01/M01 A2969 RMK A01 T10091009  RH  100%=      5-min Rain = 0
KAM1 151058Z 18005KT M01/M01 A2969 RMK A01 T10091009  RH  100%=      5-min Rain = 0
KAM1 151059Z 18005KT M01/M01 A2969 RMK A01 T10091009  RH  100%=      5-min Rain = 0
KAM1 151100Z 18006KT M01/M01 A2969 RMK A01 T10091009  RH  100%=      5-min Rain = 0
KAM1 151101Z 18006KT M01/M01 A2969 RMK A01 T10091009  RH  100%=      5-min Rain = 0
KAM1 151102Z 18006KT M01/M01 A2969 RMK A01 T10091009  RH  100%=      5-min Rain = 0
KAM1 151103Z 18006KT M01/M01 A2969 RMK A01 T10091009  RH  100%=      5-min Rain = 0
KAM1 151104Z 18006KT M01/M01 A2969 RMK A01 T10091009  RH  100%=      5-min Rain = 0
KAM1 151105Z 18006KT M01/M01 A2969 RMK A01 T10091009  RH  100%=      5-min Rain = 0
KAM1 151106Z 18006KT M01/M01 A2969 RMK A01 T10091009  RH  100%=      5-min Rain = 0
KAM1 151107Z 19006KT M01/M01 A2968 RMK A01 T10091009  RH  100%=      5-min Rain = 0
KAM1 151108Z 19006KT M01/M01 A2968 RMK A01 T10091009  RH  100%=      5-min Rain = 0
KAM1 151109Z 19006KT M01/M01 A2968 RMK A01 T10091009  RH  100%=      5-min Rain = 0
KAM1 151110Z 19006KT M01/M01 A2968 RMK A01 T10101010  RH  100%=      5-min Rain = 0
KAM1 151111Z 19007KT M01/M01 A2968 RMK A01 T10101010  RH  100%=      5-min Rain = 0
KAM1 151112Z 19007KT M01/M01 A2968 RMK A01 T10111011  RH  100%=      5-min Rain = 0
KAM1 151113Z 18007KT M01/M01 A2968 RMK A01 T10111011  RH  100%=      5-min Rain = 0
KAM1 151114Z 19007KT M01/M01 A2968 RMK A01 T10111011  RH  100%=      5-min Rain = 0
KAM1 151115Z 19006KT M01/M01 A2968 RMK A01 T10111011  RH  100%=      5-min Rain = 0
KAM1 151116Z 19006KT M01/M01 A2968 RMK A01 T10111012  RH  100%=      5-min Rain = 0
KAM1 151117Z 19006KT M01/M01 A2968 RMK A01 T10121012  RH  100%=      5-min Rain = 0
KAM1 151118Z 19006KT M01/M01 A2968 RMK A01 T10111011  RH  100%=      5-min Rain = 0
KAM1 151119Z 19005KT M01/M01 A2968 RMK A01 T10101011  RH  100%=      5-min Rain = 0
KAM1 151120Z 19005KT M01/M01 A2968 RMK A01 T10101010  RH  100%=      5-min Rain = 0
KAM1 151121Z 19005KT M01/M01 A2968 RMK A01 T10101010  RH  100%=      5-min Rain = 0
KAM1 151122Z 19005KT M01/M01 A2968 RMK A01 T10101010  RH  100%=      5-min Rain = 0
KAM1 151123Z 18005KT M01/M01 A2968 RMK A01 T10101010  RH  100%=      5-min Rain = 0
KAM1 151124Z 18006KT M01/M01 A2968 RMK A01 T10111011  RH  100%=      5-min Rain = 0
KAM1 151125Z 18006KT M01/M01 A2968 RMK A01 T10111011  RH  100%=      5-min Rain = 0
KAM1 151126Z 18007KT M01/M01 A2968 RMK A01 T10121012  RH  100%=      5-min Rain = 0
KAM1 151127Z 18007KT M01/M01 A2968 RMK A01 T10121012  RH  100%=      5-min Rain = 0
KAM1 151128Z 18006KT M01/M01 A2968 RMK A01 T10111012  RH  100%=      5-min Rain = 0
KAM1 151129Z 18006KT M01/M01 A2968 RMK A01 T10111012  RH  100%=      5-min Rain = 0
KAM1 151130Z 18006KT M01/M01 A2968 RMK A01 T10111011  RH  100%=      5-min Rain = 0
KAM1 151131Z 18007KT M01/M01 A2968 RMK A01 T10111011  RH  100%=      5-min Rain = 0
KAM1 151132Z 18006KT M01/M01 A2968 RMK A01 T10101010  RH  100%=      5-min Rain = 0
KAM1 151133Z 18006KT M01/M01 A2968 RMK A01 T10101010  RH  100%=      5-min Rain = 0
KAM1 151134Z 18006KT M01/M01 A2968 RMK A01 T10101010  RH  100%=      5-min Rain = 0
KAM1 151135Z 18006KT M01/M01 A2968 RMK A01 T10091010  RH  100%=      5-min Rain = 0
KAM1 151136Z 18007KT M01/M01 A2968 RMK A01 T10091009  RH  100%=      5-min Rain = 0
KAM1 151137Z 18007KT M01/M01 A2968 RMK A01 T10091009  RH  100%=      5-min Rain = 0
KAM1 151138Z 18007KT M01/M01 A2968 RMK A01 T10091009  RH  100%=      5-min Rain = 0
KAM1 151139Z 18007KT M01/M01 A2968 RMK A01 T10091009  RH  100%=      5-min Rain = 0
KAM1 151140Z 18007KT M01/M01 A2968 RMK A01 T10091009  RH  100%=      5-min Rain = 0
KAM1 151141Z 18007KT M01/M01 A2968 RMK A01 T10091009  RH  100%=      5-min Rain = 0
KAM1 151142Z 18007KT M01/M01 A2968 RMK A01 T10101010  RH  100%=      5-min Rain = 0
KAM1 151143Z 18007KT M01/M01 A2968 RMK A01 T10101010  RH  100%=      5-min Rain = 0
KAM1 151144Z 18007KT M01/M01 A2968 RMK A01 T10101010  RH  100%=      5-min Rain = 0
KAM1 151145Z 19007KT M01/M01 A2968 RMK A01 T10101010  RH  100%=      5-min Rain = 0
KAM1 151146Z 19006KT M01/M01 A2968 RMK A01 T10101010  RH  100%=      5-min Rain = 0
KAM1 151147Z 19007KT M01/M01 A2968 RMK A01 T10101010  RH  100%=      5-min Rain = 0
KAM1 151148Z 19006KT M01/M01 A2968 RMK A01 T10101010  RH  100%=      5-min Rain = 0
KAM1 151149Z 19007KT M01/M01 A2968 RMK A01 T10101010  RH  100%=      5-min Rain = 0
KAM1 151150Z 19007KT M01/M01 A2968 RMK A01 T10101010  RH  100%=      5-min Rain = 0
KAM1 151151Z 19007KT M01/M01 A2968 RMK A01 T10111011  RH  100%=      5-min Rain = 0
KAM1 151152Z 19008KT M01/M01 A2968 RMK A01 T10111011  RH  100%=      5-min Rain = 0
KAM1 151153Z 18008KT M01/M01 A2968 RMK A01 T10111011  RH  100%=      5-min Rain = 0
KAM1 151154Z 19008KT M01/M01 A2968 RMK A01 T10111011  RH  100%=      5-min Rain = 0
KAM1 151155Z 19008KT M01/M01 A2968 RMK A01 T10111011  RH  100%=      5-min Rain = 0
KAM1 151156Z 19008KT M01/M01 A2968 RMK A01 T10111011  RH  100%=      5-min Rain = 0
KAM1 151157Z 19008KT M01/M01 A2968 RMK A01 T10111011  RH  100%=      5-min Rain = 0
KAM1 151158Z 19007KT M01/M01 A2968 RMK A01 T10111011  RH  100%=      5-min Rain = 0
KAM1 151159Z 19008KT M01/M01 A2968 RMK A01 T10111011  RH  100%=      5-min Rain = 0
KAM1 151200Z 19008KT M01/M01 A2968 RMK A01 T10101011  RH  100%=      5-min Rain = 0
KAM1 151201Z 19008KT M01/M01 A2968 RMK A01 T10101010  RH  100%=      5-min Rain = 0
KAM1 151202Z 19008KT M01/M01 A2968 RMK A01 T10101010  RH  100%=      5-min Rain = 0
KAM1 151203Z 19008KT M01/M01 A2968 RMK A01 T10091009  RH  100%=      5-min Rain = 0
KAM1 151204Z 19008KT M01/M01 A2968 RMK A01 T10091009  RH  100%=      5-min Rain = 0
KAM1 151205Z 19008KT M01/M01 A2968 RMK A01 T10081008  RH  100%=      5-min Rain = 0
KAM1 151206Z 19008KT M01/M01 A2968 RMK A01 T10081008  RH  100%=      5-min Rain = 0
KAM1 151207Z 19007KT M01/M01 A2969 RMK A01 T10081008  RH  100%=      5-min Rain = 0
KAM1 151208Z 19007KT M01/M01 A2969 RMK A01 T10081008  RH  100%=      5-min Rain = 0
KAM1 151209Z 19007KT M01/M01 A2969 RMK A01 T10081008  RH  100%=      5-min Rain = 0
KAM1 151210Z 19006KT M01/M01 A2969 RMK A01 T10081008  RH  100%=      5-min Rain = 0
KAM1 151211Z 19006KT M01/M01 A2969 RMK A01 T10081008  RH  100%=      5-min Rain = 0
KAM1 151212Z 18006KT M01/M01 A2969 RMK A01 T10081009  RH  100%=      5-min Rain = 0
KAM1 151213Z 18006KT M01/M01 A2969 RMK A01 T10091009  RH  100%=      5-min Rain = 0
KAM1 151214Z 18005KT M01/M01 A2969 RMK A01 T10091009  RH  100%=      5-min Rain = 0
KAM1 151215Z 18004KT M01/M01 A2969 RMK A01 T10091009  RH  100%=      5-min Rain = 0
KAM1 151216Z 18004KT M01/M01 A2969 RMK A01 T10101010  RH  100%=      5-min Rain = 0
KAM1 151217Z 17004KT M01/M01 A2969 RMK A01 T10101010  RH  100%=      5-min Rain = 0
KAM1 151218Z 17003KT M01/M01 A2969 RMK A01 T10101011  RH  100%=      5-min Rain = 0
KAM1 151219Z 17003KT M01/M01 A2969 RMK A01 T10111011  RH  100%=      5-min Rain = 0
KAM1 151220Z 16003KT M01/M01 A2969 RMK A01 T10111011  RH  100%=      5-min Rain = 0
KAM1 151221Z 17002KT M01/M01 A2969 RMK A01 T10111011  RH  100%=      5-min Rain = 0
KAM1 151222Z 17001KT M01/M01 A2969 RMK A01 T10121012  RH  100%=      5-min Rain = 0
KAM1 151223Z 18002KT M01/M01 A297 RMK A01 T10111012  RH  100%=      5-min Rain = 0
KAM1 151224Z 19002KT M01/M01 A297 RMK A01 T10121012  RH  100%=      5-min Rain = 0
KAM1 151225Z 19002KT M01/M01 A297 RMK A01 T10121012  RH  100%=      5-min Rain = 0
KAM1 151226Z 19003KT M01/M01 A297 RMK A01 T10111011  RH  100%=      5-min Rain = 0
KAM1 151227Z 20002KT M01/M01 A297 RMK A01 T10111011  RH  100%=      5-min Rain = 0
KAM1 151228Z 20003KT M01/M01 A297 RMK A01 T10111011  RH  100%=      5-min Rain = 0
KAM1 151229Z 21003KT M01/M01 A297 RMK A01 T10111011  RH  100%=      5-min Rain = 0
KAM1 151230Z 20004KT M01/M01 A297 RMK A01 T10101010  RH  100%=      5-min Rain = 0
KAM1 151231Z 21003KT M01/M01 A297 RMK A01 T10101010  RH  100%=      5-min Rain = 0
KAM1 151232Z 21004KT M01/M01 A297 RMK A01 T10101010  RH  100%=      5-min Rain = 0
KAM1 151233Z 21004KT M01/M01 A297 RMK A01 T10101010  RH  100%=      5-min Rain = 0
KAM1 151234Z 21004KT M01/M01 A297 RMK A01 T10111011  RH  100%=      5-min Rain = 0
KAM1 151235Z 24003KT M01/M01 A297 RMK A01 T10111011  RH  100%=      5-min Rain = 0
KAM1 151236Z 28003KT M01/M01 A297 RMK A01 T10131013  RH  100%=      5-min Rain = 0
KAM1 151237Z 28003KT M02/M02 A297 RMK A01 T10161016  RH  100%=      5-min Rain = 0
KAM1 151238Z 24003KT M02/M02 A297 RMK A01 T10181018  RH  100%=      5-min Rain = 0
KAM1 151239Z 23004KT M02/M02 A297 RMK A01 T10201020  RH  100%=      5-min Rain = 0
KAM1 151240Z 23004KT M02/M02 A297 RMK A01 T10211021  RH  100%=      5-min Rain = 0
KAM1 151241Z 25004KT M02/M02 A297 RMK A01 T10211022  RH  100%=      5-min Rain = 0
KAM1 151242Z 30004KT M02/M02 A297 RMK A01 T10231023  RH  100%=      5-min Rain = 0
KAM1 151243Z 31005KT M03/M03 A297 RMK A01 T10251025  RH  100%=      5-min Rain = 0
KAM1 151244Z 31005KT M03/M03 A297 RMK A01 T10271027  RH  100%=      5-min Rain = 0
KAM1 151245Z 29005KT M03/M03 A297 RMK A01 T10291029  RH  100%=      5-min Rain = 0
KAM1 151246Z 30005KT M03/M03 A297 RMK A01 T10291030  RH  100%=      5-min Rain = 0
KAM1 151247Z 32007KT M03/M03 A2971 RMK A01 T10301030  RH  100%=      5-min Rain = 0
KAM1 151248Z 33010KT M03/M03 A2971 RMK A01 T10311031  RH  100%=      5-min Rain = 0
KAM1 151249Z 34010KT M03/M03 A2971 RMK A01 T10301031  RH  100%=      5-min Rain = 0
KAM1 151250Z 34008KT M03/M03 A2971 RMK A01 T10291029  RH  100%=      5-min Rain = 0
KAM1 151251Z 33008KT M03/M03 A2971 RMK A01 T10271027  RH  100%=      5-min Rain = 0
KAM1 151252Z 33008KT M03/M03 A2971 RMK A01 T10251026  RH  100%=      5-min Rain = 0
KAM1 151253Z 32007KT M02/M02 A2971 RMK A01 T10241024  RH  100%=      5-min Rain = 0
KAM1 151254Z 31006KT M02/M02 A2971 RMK A01 T10231023  RH  100%=      5-min Rain = 0
KAM1 151255Z 31006KT M02/M02 A2971 RMK A01 T10221022  RH  100%=      5-min Rain = 0
KAM1 151256Z 32006KT M02/M02 A2971 RMK A01 T10211021  RH  100%=      5-min Rain = 0
KAM1 151257Z 33007KT M02/M02 A2972 RMK A01 T10211021  RH  100%=      5-min Rain = 0
KAM1 151258Z 33006KT M02/M02 A2972 RMK A01 T10211021  RH  100%=      5-min Rain = 0
KAM1 151259Z 33006KT M02/M02 A2972 RMK A01 T10211021  RH  100%=      5-min Rain = 0
KAM1 151300Z 34005KT M02/M02 A2972 RMK A01 T10211021  RH  100%=      5-min Rain = 0
KAM1 151301Z 34005KT M02/M02 A2972 RMK A01 T10211021  RH  100%=      5-min Rain = 0
KAM1 151302Z 33006KT M02/M02 A2972 RMK A01 T10211021  RH  100%=      5-min Rain = 0
KAM1 151303Z 33006KT M02/M02 A2972 RMK A01 T10221022  RH  100%=      5-min Rain = 0
KAM1 151304Z 33007KT M02/M02 A2972 RMK A01 T10221023  RH  100%=      5-min Rain = 0
KAM1 151305Z 32006KT M02/M02 A2972 RMK A01 T10241024  RH  100%=      5-min Rain = 0
KAM1 151306Z 32006KT M02/M02 A2972 RMK A01 T10241024  RH  100%=      5-min Rain = 0
KAM1 151307Z 33006KT M03/M03 A2972 RMK A01 T10251025  RH  100%=      5-min Rain = 0
KAM1 151308Z 32007KT M03/M03 A2972 RMK A01 T10251025  RH  100%=      5-min Rain = 0
KAM1 151309Z 32007KT M03/M03 A2972 RMK A01 T10251025  RH  100%=      5-min Rain = 0
KAM1 151310Z 32006KT M03/M03 A2972 RMK A01 T10251025  RH  100%=      5-min Rain = 0
KAM1 151311Z 32007KT M02/M02 A2972 RMK A01 T10241024  RH  100%=      5-min Rain = 0
KAM1 151312Z 31006KT M02/M02 A2972 RMK A01 T10231023  RH  100%=      5-min Rain = 0
KAM1 151313Z 30006KT M02/M02 A2972 RMK A01 T10221022  RH  100%=      5-min Rain = 0
KAM1 151314Z 30005KT M02/M02 A2972 RMK A01 T10221022  RH  100%=      5-min Rain = 0
KAM1 151315Z 30006KT M02/M02 A2972 RMK A01 T10221022  RH  100%=      5-min Rain = 0
KAM1 151316Z 30007KT M02/M02 A2972 RMK A01 T10231023  RH  100%=      5-min Rain = 0
KAM1 151317Z 30006KT M02/M02 A2972 RMK A01 T10241024  RH  100%=      5-min Rain = 0
KAM1 151318Z 29006KT M02/M02 A2972 RMK A01 T10241024  RH  100%=      5-min Rain = 0
KAM1 151319Z 29006KT M02/M02 A2972 RMK A01 T10241024  RH  100%=      5-min Rain = 0
KAM1 151320Z 29006KT M02/M02 A2972 RMK A01 T10231023  RH  100%=      5-min Rain = 0
KAM1 151321Z 28005KT M02/M02 A2973 RMK A01 T10221022  RH  100%=      5-min Rain = 0
KAM1 151322Z 28005KT M02/M02 A2972 RMK A01 T10211021  RH  100%=      5-min Rain = 0
KAM1 151323Z 28005KT M02/M02 A2972 RMK A01 T10191019  RH  100%=      5-min Rain = 0
KAM1 151324Z 27005KT M02/M02 A2973 RMK A01 T10171018  RH  100%=      5-min Rain = 0
KAM1 151325Z 27005KT M02/M02 A2973 RMK A01 T10151016  RH  100%=      5-min Rain = 0
KAM1 151326Z 27005KT M02/M02 A2973 RMK A01 T10151015  RH  100%=      5-min Rain = 0
KAM1 151327Z 28005KT M02/M02 A2973 RMK A01 T10151015  RH  100%=      5-min Rain = 0
KAM1 151328Z 28006KT M02/M02 A2973 RMK A01 T10151015  RH  100%=      5-min Rain = 0
KAM1 151329Z 28006KT M02/M02 A2973 RMK A01 T10151015  RH  100%=      5-min Rain = 0
KAM1 151330Z 28006KT M01/M01 A2973 RMK A01 T10141014  RH  100%=      5-min Rain = 0
KAM1 151331Z 28006KT M01/M01 A2973 RMK A01 T10141014  RH  100%=      5-min Rain = 0
KAM1 151332Z 28006KT M01/M02 A2973 RMK A01 T10141015  RH  100%=      5-min Rain = 0
KAM1 151333Z 28007KT M02/M02 A2973 RMK A01 T10151015  RH  100%=      5-min Rain = 0
KAM1 151334Z 28006KT M02/M02 A2973 RMK A01 T10151015  RH  100%=      5-min Rain = 0
KAM1 151335Z 28006KT M02/M02 A2973 RMK A01 T10151016  RH  100%=      5-min Rain = 0
KAM1 151336Z 29007KT M02/M02 A2973 RMK A01 T10151015  RH  100%=      5-min Rain = 0
KAM1 151337Z 29007KT M02/M02 A2973 RMK A01 T10151015  RH  100%=      5-min Rain = 0
KAM1 151338Z 30007KT M02/M02 A2974 RMK A01 T10151015  RH  100%=      5-min Rain = 0
KAM1 151339Z 31009KT M01/M01 A2974 RMK A01 T10141014  RH  100%=      5-min Rain = 0
KAM1 151340Z 31008KT M01/M01 A2974 RMK A01 T10101010  RH  100%=      5-min Rain = 0
KAM1 151341Z 31009KT M01/M01 A2974 RMK A01 T10081008  RH  100%=      5-min Rain = 0
KAM1 151342Z 31010KT M01/M01 A2974 RMK A01 T10051005  RH  100%=      5-min Rain = 0
KAM1 151343Z 30009KT M00/M00 A2975 RMK A01 T10021002  RH  100%=      5-min Rain = 0
KAM1 151344Z 30008KT 00/00 A2975 RMK A01 T00-000-0  RH  100%=      5-min Rain = 0
KAM1 151345Z 30007KT 00/00 A2975 RMK A01 T00000000  RH  100%=      5-min Rain = 0
KAM1 151346Z 30007KT 00/00 A2975 RMK A01 T00-000-0  RH  100%=      5-min Rain = 0
KAM1 151347Z 30007KT 00/00 A2975 RMK A01 T00-000-0  RH  100%=      5-min Rain = 0
KAM1 151348Z 31007KT M00/M00 A2975 RMK A01 T10011001  RH  100%=      5-min Rain = 0
KAM1 151349Z 32006KT M00/M00 A2975 RMK A01 T10011001  RH  100%=      5-min Rain = 0
KAM1 151350Z 32007KT M00/M00 A2976 RMK A01 T10011001  RH  100%=      5-min Rain = 0
KAM1 151351Z 33007KT M00/M00 A2976 RMK A01 T10011001  RH  100%=      5-min Rain = 0
KAM1 151352Z 33008KT 00/00 A2976 RMK A01 T000000-0  RH  100%=      5-min Rain = 0
KAM1 151353Z 33008KT 00/00 A2976 RMK A01 T00020002  RH  100%=      5-min Rain = 0
KAM1 151354Z 33009KT 00/00 A2976 RMK A01 T00030003  RH  100%=      5-min Rain = 0
KAM1 151355Z 34007KT 01/01 A2976 RMK A01 T00050005  RH  100%=      5-min Rain = 0
KAM1 151356Z 35010KT 01/01 A2976 RMK A01 T00050005  RH  100%=      5-min Rain = 0
KAM1 151357Z 36010KT 01/01 A2976 RMK A01 T00060005  RH  100%=      5-min Rain = 0
KAM1 151358Z 35011KT 01/01 A2976 RMK A01 T00050005  RH  100%=      5-min Rain = 0
KAM1 151359Z 35012KT 00/00 A2976 RMK A01 T00030003  RH  100%=      5-min Rain = 0
KAM1 151400Z 00011KT 00/00 A2976 RMK A01 T00020001  RH  100%=      5-min Rain = 0
KAM1 151401Z 36009KT 00/00 A2976 RMK A01 T00010001  RH  100%=      5-min Rain = 0
KAM1 151402Z 35008KT 00/00 A2976 RMK A01 T00-000-0  RH  100%=      5-min Rain = 0
KAM1 151403Z 34011KT M00/M00 A2976 RMK A01 T10011001  RH  100%=      5-min Rain = 0
KAM1 151404Z 35012KT M00/M00 A2976 RMK A01 T10021002  RH  100%=      5-min Rain = 0
KAM1 151405Z 35013KT M00/M00 A2976 RMK A01 T10041004  RH  100%=      5-min Rain = 0
KAM1 151406Z 35014KT M01/M01 A2977 RMK A01 T10051005  RH  100%=      5-min Rain = 0
KAM1 151407Z 35014KT M01/M01 A2977 RMK A01 T10061006  RH  100%=      5-min Rain = 0
KAM1 151408Z 35012KT M01/M01 A2977 RMK A01 T10071007  RH  100%=      5-min Rain = 0
KAM1 151409Z 35013KT M01/M01 A2977 RMK A01 T10081008  RH  100%=      5-min Rain = 0
KAM1 151410Z 35013KT M01/M01 A2977 RMK A01 T10091009  RH  100%=      5-min Rain = 0
KAM1 151411Z 35014KT M01/M01 A2977 RMK A01 T10101010  RH  100%=      5-min Rain = 0
KAM1 151412Z 35013KT M01/M01 A2977 RMK A01 T10101010  RH  100%=      5-min Rain = 0
KAM1 151413Z 35012KT M01/M01 A2977 RMK A01 T10101011  RH  100%=      5-min Rain = 0
KAM1 151414Z 35014KT M01/M01 A2977 RMK A01 T10111011  RH  100%=      5-min Rain = 0
KAM1 151415Z 36015KT M01/M01 A2977 RMK A01 T10111011  RH  100%=      5-min Rain = 0
KAM1 151416Z 36013KT M01/M01 A2977 RMK A01 T10121012  RH  100%=      5-min Rain = 0
KAM1 151417Z 35014KT M01/M01 A2978 RMK A01 T10121012  RH  100%=      5-min Rain = 0
KAM1 151418Z 35011KT M01/M01 A2978 RMK A01 T10121012  RH  100%=      5-min Rain = 0
KAM1 151419Z 34010KT M01/M01 A2978 RMK A01 T10121012  RH  100%=      5-min Rain = 0
KAM1 151420Z 34012KT M01/M01 A2978 RMK A01 T10121012  RH  100%=      5-min Rain = 0
KAM1 151421Z 34012KT M01/M01 A2978 RMK A01 T10131013  RH  100%=      5-min Rain = 0
KAM1 151422Z 35013KT M01/M01 A2978 RMK A01 T10141014  RH  100%=      5-min Rain = 0
KAM1 151423Z 36012KT M01/M02 A2978 RMK A01 T10141015  RH  100%=      5-min Rain = 0
KAM1 151424Z 36013KT M02/M02 A2978 RMK A01 T10151015  RH  100%=      5-min Rain = 0
KAM1 151425Z 00014KT M02/M02 A2978 RMK A01 T10161016  RH  100%=      5-min Rain = 0
KAM1 151426Z 00015G20KT M02/M02 A2979 RMK A01 T10171017  RH  100%=      5-min Rain = 0
KAM1 151427Z 35014KT M02/M02 A2979 RMK A01 T10181018  RH  100%=      5-min Rain = 0
KAM1 151428Z 36016KT M02/M02 A2979 RMK A01 T10181018  RH  100%=      5-min Rain = 0
KAM1 151429Z 36016KT M02/M02 A2979 RMK A01 T10191019  RH  100%=      5-min Rain = 0
KAM1 151430Z 35015KT M02/M02 A2979 RMK A01 T10191019  RH  100%=      5-min Rain = 0
KAM1 151431Z 35013KT M02/M02 A2979 RMK A01 T10191019  RH  100%=      5-min Rain = 0
KAM1 151432Z 36015KT M02/M02 A2979 RMK A01 T10191019  RH  100%=      5-min Rain = 0
KAM1 151433Z 36014KT M02/M02 A298 RMK A01 T10191019  RH  100%=      5-min Rain = 0
KAM1 151434Z 00013KT M02/M02 A298 RMK A01 T10191019  RH  100%=      5-min Rain = 0
KAM1 151435Z 36013KT M02/M02 A298 RMK A01 T10191019  RH  100%=      5-min Rain = 0
KAM1 151436Z 36016KT M02/M02 A298 RMK A01 T10191019  RH  100%=      5-min Rain = 0
KAM1 151437Z 00017KT M02/M02 A298 RMK A01 T10191019  RH  100%=      5-min Rain = 0
KAM1 151438Z 36014KT M02/M02 A298 RMK A01 T10191019  RH  100%=      5-min Rain = 0
KAM1 151439Z 36014KT M02/M02 A298 RMK A01 T10181019  RH  100%=      5-min Rain = 0
KAM1 151440Z 35013KT M02/M02 A298 RMK A01 T10181019  RH  100%=      5-min Rain = 0
KAM1 151441Z 35013KT M02/M02 A298 RMK A01 T10181018  RH  100%=      5-min Rain = 0
KAM1 151442Z 35011KT M02/M02 A298 RMK A01 T10181018  RH  100%=      5-min Rain = 0
KAM1 151443Z 35012KT M02/M02 A298 RMK A01 T10181018  RH  100%=      5-min Rain = 0
KAM1 151444Z 35013KT M02/M02 A298 RMK A01 T10171018  RH  100%=      5-min Rain = 0
KAM1 151445Z 35013KT M02/M02 A298 RMK A01 T10171018  RH  100%=      5-min Rain = 0
KAM1 151446Z 35014KT M02/M02 A298 RMK A01 T10171017  RH  100%=      5-min Rain = 0
KAM1 151447Z 35015KT M02/M02 A298 RMK A01 T10171018  RH  100%=      5-min Rain = 0
KAM1 151448Z 35014KT M02/M02 A298 RMK A01 T10171017  RH  100%=      5-min Rain = 0
KAM1 151449Z 35014KT M02/M02 A298 RMK A01 T10171017  RH  100%=      5-min Rain = 0
KAM1 151450Z 35015KT M02/M02 A298 RMK A01 T10181018  RH  100%=      5-min Rain = 0
KAM1 151451Z 35013KT M02/M02 A298 RMK A01 T10181018  RH  100%=      5-min Rain = 0
KAM1 151452Z 35013KT M02/M02 A298 RMK A01 T10181018  RH  100%=      5-min Rain = 0
KAM1 151453Z 35014KT M02/M02 A298 RMK A01 T10181018  RH  100%=      5-min Rain = 0
KAM1 151454Z 35013KT M02/M02 A298 RMK A01 T10181018  RH  100%=      5-min Rain = 0
KAM1 151455Z 35012KT M02/M02 A2981 RMK A01 T10181018  RH  100%=      5-min Rain = 0
KAM1 151456Z 35012KT M02/M02 A2981 RMK A01 T10171017  RH  100%=      5-min Rain = 0
KAM1 151457Z 34011G16KT M02/M02 A2981 RMK A01 T10171017  RH  100%=      5-min Rain = 0
KAM1 151458Z 35013KT M02/M02 A2981 RMK A01 T10171017  RH  100%=      5-min Rain = 0
KAM1 151459Z 35012KT M02/M02 A2981 RMK A01 T10171017  RH  100%=      5-min Rain = 0
KAM1 151500Z 35014KT M02/M02 A2981 RMK A01 T10171017  RH  100%=      5-min Rain = 0
KAM1 151501Z 35013KT M02/M02 A2981 RMK A01 T10171017  RH  100%=      5-min Rain = 0
KAM1 151502Z 35011KT M02/M02 A2981 RMK A01 T10171017  RH  100%=      5-min Rain = 0
KAM1 151503Z 35012KT M02/M02 A2981 RMK A01 T10171017  RH  100%=      5-min Rain = 0
KAM1 151504Z 35012KT M02/M02 A2982 RMK A01 T10171017  RH  100%=      5-min Rain = 0
KAM1 151505Z 35013KT M02/M02 A2982 RMK A01 T10161017  RH  100%=      5-min Rain = 0
KAM1 151506Z 35012KT M02/M02 A2982 RMK A01 T10161016  RH  100%=      5-min Rain = 0
KAM1 151507Z 35013KT M02/M02 A2982 RMK A01 T10161016  RH  100%=      5-min Rain = 0
KAM1 151508Z 36013KT M02/M02 A2982 RMK A01 T10171017  RH  100%=      5-min Rain = 0
KAM1 151509Z 00013KT M02/M02 A2982 RMK A01 T10171017  RH  100%=      5-min Rain = 0
KAM1 151510Z 36014KT M02/M02 A2982 RMK A01 T10161016  RH  100%=      5-min Rain = 0
KAM1 151511Z 36011KT M02/M02 A2982 RMK A01 T10161016  RH  100%=      5-min Rain = 0
KAM1 151512Z 36014KT M02/M02 A2982 RMK A01 T10161016  RH  100%=      5-min Rain = 0
KAM1 151513Z 36014KT M02/M02 A2982 RMK A01 T10161016  RH  100%=      5-min Rain = 0
KAM1 151514Z 36013KT M02/M02 A2982 RMK A01 T10161016  RH  100%=      5-min Rain = 0
KAM1 151515Z 36011KT M02/M02 A2983 RMK A01 T10161016  RH  100%=      5-min Rain = 0
KAM1 151516Z 36012KT M02/M02 A2983 RMK A01 T10151015  RH  100%=      5-min Rain = 0
KAM1 151517Z 36012KT M02/M02 A2983 RMK A01 T10151015  RH  100%=      5-min Rain = 0
KAM1 151518Z 36012KT M02/M02 A2983 RMK A01 T10151015  RH  100%=      5-min Rain = 0
KAM1 151519Z 36011KT M02/M02 A2983 RMK A01 T10151015  RH  100%=      5-min Rain = 0
KAM1 151520Z 36009KT M01/M02 A2983 RMK A01 T10141015  RH  100%=      5-min Rain = 0
KAM1 151521Z 35010KT M01/M01 A2983 RMK A01 T10141014  RH  100%=      5-min Rain = 0
KAM1 151522Z 36009KT M01/M01 A2983 RMK A01 T10141014  RH  100%=      5-min Rain = 0
KAM1 151523Z 36010KT M01/M01 A2983 RMK A01 T10131013  RH  100%=      5-min Rain = 0
KAM1 151524Z 01009KT M01/M01 A2983 RMK A01 T10131013  RH  100%=      5-min Rain = 0
KAM1 151525Z 35013KT M01/M01 A2983 RMK A01 T10131013  RH  100%=      5-min Rain = 0
KAM1 151526Z 00012KT M01/M01 A2983 RMK A01 T10131013  RH  100%=      5-min Rain = 0
KAM1 151527Z 36012KT M01/M01 A2983 RMK A01 T10131013  RH  100%=      5-min Rain = 0
KAM1 151528Z 36013KT M01/M01 A2983 RMK A01 T10121012  RH  100%=      5-min Rain = 0
KAM1 151529Z 36014KT M01/M01 A2983 RMK A01 T10121012  RH  100%=      5-min Rain = 0
KAM1 151530Z 36014KT M01/M01 A2983 RMK A01 T10131013  RH  100%=      5-min Rain = 0
KAM1 151531Z 00015KT M01/M01 A2983 RMK A01 T10121012  RH  100%=      5-min Rain = 0
KAM1 151532Z 00013KT M01/M01 A2984 RMK A01 T10121012  RH  100%=      5-min Rain = 0
KAM1 151533Z 00012KT M01/M01 A2984 RMK A01 T10121012  RH  100%=      5-min Rain = 0
KAM1 151534Z 00014KT M01/M01 A2984 RMK A01 T10121012  RH  100%=      5-min Rain = 0
KAM1 151535Z 00013KT M01/M01 A2984 RMK A01 T10121012  RH  100%=      5-min Rain = 0
KAM1 151536Z 35010KT M01/M01 A2984 RMK A01 T10121012  RH  100%=      5-min Rain = 0
KAM1 151537Z 35011KT M01/M01 A2984 RMK A01 T10111011  RH  100%=      5-min Rain = 0
KAM1 151538Z 35014KT M01/M01 A2984 RMK A01 T10111011  RH  100%=      5-min Rain = 0
KAM1 151539Z 35014KT M01/M01 A2984 RMK A01 T10111011  RH  100%=      5-min Rain = 0
KAM1 151540Z 35013KT M01/M01 A2984 RMK A01 T10111011  RH  100%=      5-min Rain = 0
KAM1 151541Z 35015KT M01/M01 A2984 RMK A01 T10111011  RH  100%=      5-min Rain = 0
KAM1 151542Z 35011KT M01/M01 A2984 RMK A01 T10111011  RH  100%=      5-min Rain = 0
KAM1 151543Z 00011KT M01/M01 A2984 RMK A01 T10111011  RH  100%=      5-min Rain = 0
KAM1 151544Z 00011KT M01/M01 A2984 RMK A01 T10111011  RH  100%=      5-min Rain = 0
KAM1 151545Z 35011KT M01/M01 A2984 RMK A01 T10101011  RH  100%=      5-min Rain = 0
KAM1 151546Z 35013KT M01/M01 A2984 RMK A01 T10111011  RH  100%=      5-min Rain = 0
KAM1 151547Z 35013KT M01/M01 A2984 RMK A01 T10101011  RH  100%=      5-min Rain = 0
KAM1 151548Z 36015KT M01/M01 A2984 RMK A01 T10111011  RH  100%=      5-min Rain = 0
KAM1 151549Z 35014KT M01/M01 A2984 RMK A01 T10111011  RH  100%=      5-min Rain = 0
KAM1 151550Z 35014KT M01/M01 A2984 RMK A01 T10101011  RH  100%=      5-min Rain = 0
KAM1 151551Z 35014KT M01/M01 A2984 RMK A01 T10101010  RH  100%=      5-min Rain = 0
KAM1 151552Z 35014KT M01/M01 A2984 RMK A01 T10101010  RH  100%=      5-min Rain = 0
KAM1 151553Z 36012KT M01/M01 A2985 RMK A01 T10101010  RH  100%=      5-min Rain = 0
KAM1 151554Z 35010KT M01/M01 A2985 RMK A01 T10101010  RH  100%=      5-min Rain = 0
KAM1 151555Z 35013KT M01/M01 A2985 RMK A01 T10101010  RH  100%=      5-min Rain = 0
KAM1 151556Z 35014KT M01/M01 A2985 RMK A01 T10101010  RH  100%=      5-min Rain = 0
KAM1 151557Z 35014KT M01/M01 A2985 RMK A01 T10101010  RH  100%=      5-min Rain = 0
KAM1 151558Z 35014KT M01/M01 A2985 RMK A01 T10101010  RH  100%=      5-min Rain = 0
KAM1 151559Z 35015KT M01/M01 A2985 RMK A01 T10101010  RH  100%=      5-min Rain = 0
KAM1 151600Z 35013KT M01/M01 A2986 RMK A01 T10101010  RH  100%=      5-min Rain = 0
KAM1 151601Z 36012KT M01/M01 A2985 RMK A01 T10091010  RH  100%=      5-min Rain = 0
KAM1 151602Z 36012KT M01/M01 A2986 RMK A01 T10091009  RH  100%=      5-min Rain = 0
KAM1 151603Z 36015KT M01/M01 A2986 RMK A01 T10091009  RH  100%=      5-min Rain = 0
KAM1 151604Z 00014KT M01/M01 A2986 RMK A01 T10091009  RH  100%=      5-min Rain = 0
KAM1 151605Z 35013KT M01/M01 A2986 RMK A01 T10091009  RH  100%=      5-min Rain = 0
KAM1 151606Z 36014KT M01/M01 A2986 RMK A01 T10091009  RH  100%=      5-min Rain = 0
KAM1 151607Z 35013KT M01/M01 A2986 RMK A01 T10091009  RH  100%=      5-min Rain = 0
KAM1 151608Z 00014KT M01/M01 A2986 RMK A01 T10081008  RH  100%=      5-min Rain = 0
KAM1 151609Z 36011KT M01/M01 A2986 RMK A01 T10081008  RH  100%=      5-min Rain = 0
KAM1 151610Z 00012KT M01/M01 A2986 RMK A01 T10081008  RH  100%=      5-min Rain = 0
KAM1 151611Z 36013KT M01/M01 A2986 RMK A01 T10081008  RH  100%=      5-min Rain = 0
KAM1 151612Z 35015KT M01/M01 A2986 RMK A01 T10081008  RH  100%=      5-min Rain = 0
KAM1 151613Z 36016KT M01/M01 A2986 RMK A01 T10081008  RH  100%=      5-min Rain = 0
KAM1 151614Z 35016KT M01/M01 A2986 RMK A01 T10081008  RH  100%=      5-min Rain = 0
KAM1 151615Z 35016KT M01/M01 A2986 RMK A01 T10081009  RH  100%=      5-min Rain = 0
KAM1 151616Z 36016KT M01/M01 A2986 RMK A01 T10081008  RH  100%=      5-min Rain = 0
KAM1 151617Z 35015KT M01/M01 A2986 RMK A01 T10091009  RH  100%=      5-min Rain = 0
KAM1 151618Z 35016KT M01/M01 A2986 RMK A01 T10091009  RH  100%=      5-min Rain = 0
KAM1 151619Z 35014KT M01/M01 A2986 RMK A01 T10091009  RH  100%=      5-min Rain = 0
KAM1 151620Z 00015KT M01/M01 A2986 RMK A01 T10091009  RH  100%=      5-min Rain = 0
KAM1 151621Z 35014KT M01/M01 A2986 RMK A01 T10091009  RH  100%=      5-min Rain = 0
KAM1 151622Z 00013KT M01/M01 A2986 RMK A01 T10091009  RH  100%=      5-min Rain = 0
KAM1 151623Z 36010KT M01/M01 A2987 RMK A01 T10091009  RH  100%=      5-min Rain = 0
KAM1 151624Z 35010KT M01/M01 A2987 RMK A01 T10081008  RH  100%=      5-min Rain = 0
KAM1 151625Z 36014KT M01/M01 A2987 RMK A01 T10081008  RH  100%=      5-min Rain = 0
KAM1 151626Z 01012KT M01/M01 A2987 RMK A01 T10081008  RH  100%=      5-min Rain = 0
KAM1 151627Z 36012KT M01/M01 A2987 RMK A01 T10081008  RH  100%=      5-min Rain = 0
KAM1 151628Z 36013KT M01/M01 A2987 RMK A01 T10081008  RH  100%=      5-min Rain = 0
KAM1 151629Z 00014KT M01/M01 A2987 RMK A01 T10081008  RH  100%=      5-min Rain = 0
KAM1 151630Z 36012KT M01/M01 A2987 RMK A01 T10081008  RH  100%=      5-min Rain = 0
KAM1 151631Z 35012KT M01/M01 A2987 RMK A01 T10081008  RH  100%=      5-min Rain = 0
KAM1 151632Z 36013KT M01/M01 A2987 RMK A01 T10081008  RH  100%=      5-min Rain = 0
KAM1 151633Z 36012KT M01/M01 A2987 RMK A01 T10081008  RH  100%=      5-min Rain = 0
KAM1 151634Z 00010G15KT M01/M01 A2987 RMK A01 T10081008  RH  100%=      5-min Rain = 0
KAM1 151635Z 36012KT M01/M01 A2987 RMK A01 T10081008  RH  100%=      5-min Rain = 0
KAM1 151636Z 36014KT M01/M01 A2987 RMK A01 T10071007  RH  100%=      5-min Rain = 0
KAM1 151637Z 36013KT M01/M01 A2987 RMK A01 T10071008  RH  100%=      5-min Rain = 0
KAM1 151638Z 01013KT M01/M01 A2987 RMK A01 T10071007  RH  100%=      5-min Rain = 0
KAM1 151639Z 00011KT M01/M01 A2987 RMK A01 T10071007  RH  100%=      5-min Rain = 0
KAM1 151640Z 00011KT M01/M01 A2987 RMK A01 T10071007  RH  100%=      5-min Rain = 0
KAM1 151641Z 36011KT M01/M01 A2987 RMK A01 T10071007  RH  100%=      5-min Rain = 0
KAM1 151642Z 36013KT M01/M01 A2988 RMK A01 T10061007  RH  100%=      5-min Rain = 0
KAM1 151643Z 36011KT M01/M01 A2988 RMK A01 T10061007  RH  100%=      5-min Rain = 0
KAM1 151644Z 36014G19KT M01/M01 A2988 RMK A01 T10071007  RH  100%=      5-min Rain = 0
KAM1 151645Z 01012KT M01/M01 A2988 RMK A01 T10071007  RH  100%=      5-min Rain = 0
KAM1 151646Z 01012KT M01/M01 A2988 RMK A01 T10061006  RH  100%=      5-min Rain = 0
KAM1 151647Z 36011KT M01/M01 A2988 RMK A01 T10061007  RH  100%=      5-min Rain = 0
KAM1 151648Z 36009KT M01/M01 A2988 RMK A01 T10061007  RH  100%=      5-min Rain = 0
KAM1 151649Z 35012KT M01/M01 A2988 RMK A01 T10061006  RH  100%=      5-min Rain = 0
KAM1 151650Z 35014KT M01/M01 A2988 RMK A01 T10061007  RH  100%=      5-min Rain = 0
KAM1 151651Z 35014KT M01/M01 A2988 RMK A01 T10071007  RH  100%=      5-min Rain = 0
KAM1 151652Z 35015KT M01/M01 A2988 RMK A01 T10071007  RH  100%=      5-min Rain = 0
KAM1 151653Z 35014KT M01/M01 A2988 RMK A01 T10071008  RH  100%=      5-min Rain = 0
KAM1 151654Z 00015KT M01/M01 A2988 RMK A01 T10081008  RH  100%=      5-min Rain = 0
KAM1 151655Z 35013KT M01/M01 A2988 RMK A01 T10071007  RH  100%=      5-min Rain = 0
KAM1 151656Z 35014KT M01/M01 A2988 RMK A01 T10071007  RH  100%=      5-min Rain = 0
KAM1 151657Z 36014KT M01/M01 A2988 RMK A01 T10071007  RH  100%=      5-min Rain = 0
KAM1 151658Z 00014KT M01/M01 A2988 RMK A01 T10071007  RH  100%=      5-min Rain = 0
KAM1 151659Z 36010KT M01/M01 A2988 RMK A01 T10071007  RH  100%=      5-min Rain = 0
KAM1 151700Z 35010KT M01/M01 A2988 RMK A01 T10071007  RH  100%=      5-min Rain = 0
KAM1 151701Z 00009KT M01/M01 A2988 RMK A01 T10061006  RH  100%=      5-min Rain = 0
KAM1 151702Z 36011KT M01/M01 A2988 RMK A01 T10061006  RH  100%=      5-min Rain = 0
KAM1 151703Z 36011KT M01/M01 A2988 RMK A01 T10061006  RH  100%=      5-min Rain = 0
KAM1 151704Z 35012KT M01/M01 A2988 RMK A01 T10061006  RH  100%=      5-min Rain = 0
KAM1 151705Z 36009KT M01/M01 A2988 RMK A01 T10061006  RH  100%=      5-min Rain = 0
KAM1 151706Z 35010KT M01/M01 A2988 RMK A01 T10061006  RH  100%=      5-min Rain = 0
KAM1 151707Z 36012KT M01/M01 A2988 RMK A01 T10051006  RH  100%=      5-min Rain = 0
KAM1 151708Z 36012KT M01/M01 A2988 RMK A01 T10061006  RH  100%=      5-min Rain = 0
KAM1 151709Z 36013KT M01/M01 A2988 RMK A01 T10061007  RH  100%=      5-min Rain = 0
KAM1 151710Z 36013KT M01/M01 A2988 RMK A01 T10071007  RH  100%=      5-min Rain = 0
KAM1 151711Z 36013KT M01/M01 A2989 RMK A01 T10071007  RH  100%=      5-min Rain = 0
KAM1 151712Z 35014KT M01/M01 A2988 RMK A01 T10071007  RH  100%=      5-min Rain = 0
KAM1 151713Z 36013KT M01/M01 A2989 RMK A01 T10081008  RH  100%=      5-min Rain = 0
KAM1 151714Z 36015KT M01/M01 A2989 RMK A01 T10081008  RH  100%=      5-min Rain = 0
KAM1 151715Z 35014KT M01/M01 A2989 RMK A01 T10081008  RH  100%=      5-min Rain = 0
KAM1 151716Z 36014KT M01/M01 A2989 RMK A01 T10081008  RH  100%=      5-min Rain = 0
KAM1 151717Z 35012KT M01/M01 A2989 RMK A01 T10081008  RH  100%=      5-min Rain = 0
KAM1 151718Z 00011KT M01/M01 A2989 RMK A01 T10081008  RH  100%=      5-min Rain = 0
KAM1 151719Z 36013KT M01/M01 A2989 RMK A01 T10071007  RH  100%=      5-min Rain = 0
KAM1 151720Z 36014G19KT M01/M01 A2989 RMK A01 T10071007  RH  100%=      5-min Rain = 0
KAM1 151721Z 00015KT M01/M01 A2989 RMK A01 T10071007  RH  100%=      5-min Rain = 0
KAM1 151722Z 01016KT M01/M01 A2989 RMK A01 T10081009  RH  100%=      5-min Rain = 0
KAM1 151723Z 00015KT M01/M01 A2989 RMK A01 T10091009  RH  100%=      5-min Rain = 0
KAM1 151724Z 01014KT M01/M01 A2989 RMK A01 T10091009  RH  100%=      5-min Rain = 0
KAM1 151725Z 36015KT M01/M01 A2989 RMK A01 T10101010  RH  100%=      5-min Rain = 0
KAM1 151726Z 01017KT M01/M01 A2989 RMK A01 T10101010  RH  100%=      5-min Rain = 0
KAM1 151727Z 01014KT M01/M01 A2989 RMK A01 T10101010  RH  100%=      5-min Rain = 0
KAM1 151728Z 00016KT M01/M01 A2989 RMK A01 T10101010  RH  100%=      5-min Rain = 0
KAM1 151729Z 01016KT M01/M01 A2989 RMK A01 T10091009  RH  100%=      5-min Rain = 0
KAM1 151730Z 36015KT M01/M01 A2989 RMK A01 T10091009  RH  100%=      5-min Rain = 0
KAM1 151731Z 36016KT M01/M01 A2989 RMK A01 T10091009  RH  100%=      5-min Rain = 0
KAM1 151732Z 36015KT M01/M01 A2989 RMK A01 T10101010  RH  100%=      5-min Rain = 0
KAM1 151733Z 00015KT M01/M01 A2989 RMK A01 T10101010  RH  100%=      5-min Rain = 0
KAM1 151734Z 36015KT M01/M01 A2989 RMK A01 T10101010  RH  100%=      5-min Rain = 0
KAM1 151735Z 00013KT M01/M01 A2989 RMK A01 T10101010  RH  100%=      5-min Rain = 0
KAM1 151736Z 35013G18KT M01/M01 A2989 RMK A01 T10101010  RH  100%=      5-min Rain = 0
KAM1 151737Z 36013KT M01/M01 A2989 RMK A01 T10091009  RH  100%=      5-min Rain = 0
KAM1 151738Z 00012KT M01/M01 A2989 RMK A01 T10091009  RH  100%=      5-min Rain = 0
KAM1 151739Z 00013KT M01/M01 A2989 RMK A01 T10091009  RH  100%=      5-min Rain = 0
KAM1 151740Z 00014KT M01/M01 A2989 RMK A01 T10091009  RH  100%=      5-min Rain = 0
KAM1 151741Z 36013KT M01/M01 A2989 RMK A01 T10081009  RH  100%=      5-min Rain = 0
KAM1 151742Z 36011KT M01/M01 A2989 RMK A01 T10081008  RH  100%=      5-min Rain = 0
KAM1 151743Z 36014KT M01/M01 A2989 RMK A01 T10081008  RH  100%=      5-min Rain = 0
KAM1 151744Z 35013KT M01/M01 A2989 RMK A01 T10071008  RH  100%=      5-min Rain = 0
KAM1 151745Z 35014KT M01/M01 A2989 RMK A01 T10071007  RH  100%=      5-min Rain = 0
KAM1 151746Z 00012KT M01/M01 A2989 RMK A01 T10071008  RH  100%=      5-min Rain = 0
KAM1 151747Z 35014KT M01/M01 A2989 RMK A01 T10071007  RH  100%=      5-min Rain = 0
KAM1 151748Z 01015KT M01/M01 A2989 RMK A01 T10081008  RH  100%=      5-min Rain = 0
KAM1 151749Z 00014KT M01/M01 A2989 RMK A01 T10081009  RH  100%=      5-min Rain = 0
KAM1 151750Z 35013KT M01/M01 A2989 RMK A01 T10091009  RH  100%=      5-min Rain = 0
KAM1 151751Z 36014KT M01/M01 A2988 RMK A01 T10081008  RH  100%=      5-min Rain = 0
KAM1 151752Z 36016KT M01/M01 A2988 RMK A01 T10081008  RH  100%=      5-min Rain = 0
KAM1 151753Z 36017KT M01/M01 A2988 RMK A01 T10081008  RH  100%=      5-min Rain = 0
KAM1 151754Z 36015KT M01/M01 A2988 RMK A01 T10081008  RH  100%=      5-min Rain = 0
KAM1 151755Z 36013KT M01/M01 A2989 RMK A01 T10091009  RH  100%=      5-min Rain = 0
KAM1 151756Z 35017KT M01/M01 A2989 RMK A01 T10081008  RH  100%=      5-min Rain = 0
KAM1 151757Z 35016KT M01/M01 A2988 RMK A01 T10081008  RH  100%=      5-min Rain = 0
KAM1 151758Z 35014KT M01/M01 A2988 RMK A01 T10091009  RH  100%=      5-min Rain = 0
KAM1 151759Z 35014KT M01/M01 A2988 RMK A01 T10091009  RH  100%=      5-min Rain = 0
KAM1 151800Z 36015KT M01/M01 A2988 RMK A01 T10091009  RH  100%=      5-min Rain = 0
KAM1 151801Z 35015KT M01/M01 A2988 RMK A01 T10091009  RH  100%=      5-min Rain = 0
KAM1 151802Z 01015KT M01/M01 A2988 RMK A01 T10091010  RH  099%=      5-min Rain = 0
KAM1 151803Z 01016G21KT M01/M01 A2988 RMK A01 T10091010  RH  099%=      5-min Rain = 0
KAM1 151804Z 00016KT M01/M01 A2988 RMK A01 T10091011  RH  099%=      5-min Rain = 0
KAM1 151805Z 00015KT M01/M01 A2988 RMK A01 T10091011  RH  099%=      5-min Rain = 0
KAM1 151806Z 36013KT M01/M01 A2988 RMK A01 T10101012  RH  099%=      5-min Rain = 0
KAM1 151807Z 00015KT M01/M01 A2988 RMK A01 T10101011  RH  099%=      5-min Rain = 0
KAM1 151808Z 01016KT M01/M01 A2988 RMK A01 T10091012  RH  098%=      5-min Rain = 0
KAM1 151809Z 00016KT M01/M01 A2987 RMK A01 T10101012  RH  098%=      5-min Rain = 0
KAM1 151810Z 01015KT M01/M01 A2987 RMK A01 T10101012  RH  098%=      5-min Rain = 0
KAM1 151811Z 00014KT M01/M01 A2987 RMK A01 T10101013  RH  098%=      5-min Rain = 0
KAM1 151812Z 00016KT M01/M01 A2987 RMK A01 T10101012  RH  098%=      5-min Rain = 0
KAM1 151813Z 36016KT M01/M01 A2987 RMK A01 T10101013  RH  098%=      5-min Rain = 0
KAM1 151814Z 36013KT M01/M01 A2987 RMK A01 T10101013  RH  098%=      5-min Rain = 0
KAM1 151815Z 35014KT M01/M01 A2987 RMK A01 T10091012  RH  098%=      5-min Rain = 0
KAM1 151816Z 36012KT M01/M01 A2987 RMK A01 T10091013  RH  098%=      5-min Rain = 0
KAM1 151817Z 36011KT M01/M01 A2987 RMK A01 T10081011  RH  098%=      5-min Rain = 0
KAM1 151818Z 00014KT M01/M01 A2987 RMK A01 T10071011  RH  097%=      5-min Rain = 0
KAM1 151819Z 36012KT M01/M01 A2987 RMK A01 T10071012  RH  097%=      5-min Rain = 0
KAM1 151820Z 35013KT M01/M01 A2987 RMK A01 T10071012  RH  096%=      5-min Rain = 0
KAM1 151821Z 00012KT M01/M01 A2987 RMK A01 T10071013  RH  096%=      5-min Rain = 0
KAM1 151822Z 00014G19KT M01/M01 A2987 RMK A01 T10061013  RH  096%=      5-min Rain = 0
KAM1 151823Z 01016KT M01/M02 A2987 RMK A01 T10071015  RH  094%=      5-min Rain = 0
KAM1 151824Z 00014KT M01/M02 A2987 RMK A01 T10081016  RH  094%=      5-min Rain = 0
KAM1 151825Z 01014KT M01/M02 A2987 RMK A01 T10081016  RH  094%=      5-min Rain = 0
KAM1 151826Z 00016KT M01/M02 A2987 RMK A01 T10071015  RH  095%=      5-min Rain = 0
KAM1 151827Z 00014KT M01/M02 A2987 RMK A01 T10071016  RH  094%=      5-min Rain = 0
KAM1 151828Z 00015KT M01/M02 A2987 RMK A01 T10071017  RH  094%=      5-min Rain = 0
KAM1 151829Z 00013KT M01/M02 A2986 RMK A01 T10081018  RH  093%=      5-min Rain = 0
KAM1 151830Z 00013KT M01/M02 A2986 RMK A01 T10081017  RH  094%=      5-min Rain = 0
KAM1 151831Z 01015KT M01/M02 A2986 RMK A01 T10071016  RH  094%=      5-min Rain = 0
KAM1 151832Z 01012KT M01/M02 A2986 RMK A01 T10071017  RH  093%=      5-min Rain = 0
KAM1 151833Z 00012KT M01/M02 A2986 RMK A01 T10071016  RH  093%=      5-min Rain = 0
KAM1 151834Z 36014KT M01/M02 A2986 RMK A01 T10061015  RH  093%=      5-min Rain = 0
KAM1 151835Z 35013KT M01/M02 A2986 RMK A01 T10051016  RH  092%=      5-min Rain = 0
KAM1 151841Z 00012KT M01/M02 A2986 RMK A01 T10051019  RH  090%=      5-min Rain = 0
KAM1 151842Z 01015KT M01/M02 A2986 RMK A01 T10051019  RH  090%=      5-min Rain = 0
KAM1 151843Z 01013KT M01/M02 A2986 RMK A01 T10061021  RH  089%=      5-min Rain = 0
KAM1 151844Z 00012KT M01/M02 A2986 RMK A01 T10061021  RH  090%=      5-min Rain = 0
KAM1 151845Z 36009G15KT M01/M02 A2986 RMK A01 T10061019  RH  090%=      5-min Rain = 0
KAM1 151846Z 01011KT M00/M02 A2986 RMK A01 T10041017  RH  091%=      5-min Rain = 0
KAM1 151847Z 00014KT M00/M02 A2986 RMK A01 T10031018  RH  089%=      5-min Rain = 0
KAM1 151848Z 35013KT M00/M02 A2986 RMK A01 T10031020  RH  088%=      5-min Rain = 0
KAM1 151849Z 34014KT M00/M02 A2986 RMK A01 T10041021  RH  088%=      5-min Rain = 0
KAM1 151850Z 34014KT M01/M02 A2985 RMK A01 T10051022  RH  088%=      5-min Rain = 0
KAM1 151851Z 35014KT M01/M02 A2985 RMK A01 T10051021  RH  089%=      5-min Rain = 0
KAM1 151852Z 00015KT M00/M02 A2985 RMK A01 T10031019  RH  089%=      5-min Rain = 0
KAM1 151853Z 35014KT M00/M02 A2985 RMK A01 T10021021  RH  087%=      5-min Rain = 0
KAM1 151854Z 35014KT M00/M02 A2985 RMK A01 T10031022  RH  087%=      5-min Rain = 0
KAM1 151855Z 35011KT M00/M02 A2985 RMK A01 T10031021  RH  087%=      5-min Rain = 0
KAM1 151856Z 01013KT M00/M02 A2985 RMK A01 T10021020  RH  087%=      5-min Rain = 0
KAM1 151857Z 36013KT M00/M02 A2985 RMK A01 T10011020  RH  087%=      5-min Rain = 0
KAM1 151858Z 35016KT 00/02 A2985 RMK A01 T00000-21  RH  086%=      5-min Rain = 0
KAM1 151859Z 35014KT 00/02 A2985 RMK A01 T00-00-23  RH  085%=      5-min Rain = 0
KAM1 151900Z 35015KT M00/M02 A2985 RMK A01 T10011023  RH  085%=      5-min Rain = 0
KAM1 151901Z 35015KT M00/M02 A2985 RMK A01 T10011024  RH  085%=      5-min Rain = 0
KAM1 151902Z 36014KT M00/M03 A2985 RMK A01 T10011025  RH  084%=      5-min Rain = 0
KAM1 151903Z 35014KT M00/M03 A2985 RMK A01 T10021025  RH  084%=      5-min Rain = 0
KAM1 151904Z 35013KT M00/M02 A2985 RMK A01 T10021024  RH  085%=      5-min Rain = 0
KAM1 151905Z 35012KT 00/02 A2985 RMK A01 T00-00-22  RH  085%=      5-min Rain = 0
KAM1 151906Z 34013KT 00/M02 A2985 RMK A01 T00011022  RH  084%=      5-min Rain = 0
KAM1 151907Z 35014KT 00/M02 A2985 RMK A01 T00021023  RH  083%=      5-min Rain = 0
KAM1 151908Z 35013KT 00/M03 A2985 RMK A01 T00021025  RH  083%=      5-min Rain = 0
KAM1 151909Z 34013KT 00/M03 A2985 RMK A01 T00011025  RH  083%=      5-min Rain = 0
KAM1 151910Z 35013KT 00/03 A2985 RMK A01 T00000-26  RH  083%=      5-min Rain = 0
KAM1 151911Z 35014KT 00/03 A2985 RMK A01 T00-00-26  RH  083%=      5-min Rain = 0
KAM1 151912Z 35016KT 00/03 A2985 RMK A01 T00000-26  RH  082%=      5-min Rain = 0
KAM1 151913Z 00015KT 00/03 A2985 RMK A01 T00000-27  RH  082%=      5-min Rain = 0
KAM1 151914Z 36014KT 00/03 A2985 RMK A01 T00000-28  RH  082%=      5-min Rain = 0
KAM1 151915Z 36015KT 00/03 A2985 RMK A01 T00-00-28  RH  082%=      5-min Rain = 0
KAM1 151916Z 35013KT 00/03 A2985 RMK A01 T00000-28  RH  081%=      5-min Rain = 0
KAM1 151917Z 36012KT 00/M03 A2985 RMK A01 T00011028  RH  081%=      5-min Rain = 0
KAM1 151918Z 00014KT 00/M03 A2985 RMK A01 T00011028  RH  081%=      5-min Rain = 0
KAM1 151919Z 00012KT 00/M03 A2985 RMK A01 T00021028  RH  080%=      5-min Rain = 0
KAM1 151920Z 00016KT 00/M03 A2985 RMK A01 T00031028  RH  080%=      5-min Rain = 0
KAM1 151921Z 36016KT 00/M03 A2985 RMK A01 T00031029  RH  079%=      5-min Rain = 0
KAM1 151922Z 35016KT 00/M03 A2985 RMK A01 T00021030  RH  079%=      5-min Rain = 0
KAM1 151923Z 35014KT 00/M03 A2985 RMK A01 T00011030  RH  080%=      5-min Rain = 0
KAM1 151924Z 00015KT 00/M03 A2985 RMK A01 T00011030  RH  080%=      5-min Rain = 0
KAM1 151925Z 35013KT 00/M03 A2985 RMK A01 T00021027  RH  081%=      5-min Rain = 0
KAM1 151926Z 36014KT 00/M03 A2985 RMK A01 T00041027  RH  080%=      5-min Rain = 0
KAM1 151927Z 00014KT 00/M03 A2985 RMK A01 T00041027  RH  080%=      5-min Rain = 0
KAM1 151928Z 35014KT 01/M03 A2985 RMK A01 T00051028  RH  078%=      5-min Rain = 0
KAM1 151929Z 00014KT 01/M03 A2985 RMK A01 T00051029  RH  078%=      5-min Rain = 0
KAM1 151930Z 00015KT 01/M03 A2985 RMK A01 T00051029  RH  078%=      5-min Rain = 0
KAM1 151931Z 01014KT 01/M03 A2985 RMK A01 T00051029  RH  078%=      5-min Rain = 0
KAM1 151932Z 01011KT 01/M03 A2985 RMK A01 T00051029  RH  078%=      5-min Rain = 0
KAM1 151933Z 00015KT 01/M03 A2985 RMK A01 T00071026  RH  078%=      5-min Rain = 0
KAM1 151934Z 00013KT 01/M03 A2985 RMK A01 T00081027  RH  077%=      5-min Rain = 0
KAM1 151935Z 36013KT 01/M03 A2985 RMK A01 T00061030  RH  077%=      5-min Rain = 0
KAM1 151936Z 00014KT 01/M03 A2985 RMK A01 T00051030  RH  077%=      5-min Rain = 0
KAM1 151937Z 01013KT 00/M03 A2985 RMK A01 T00031031  RH  078%=      5-min Rain = 0
KAM1 151938Z 01013KT 00/M03 A2985 RMK A01 T00031030  RH  079%=      5-min Rain = 0
KAM1 151939Z 36010KT 00/M03 A2985 RMK A01 T00031029  RH  079%=      5-min Rain = 0
KAM1 151940Z 35015KT 01/M03 A2985 RMK A01 T00051028  RH  079%=      5-min Rain = 0
KAM1 151941Z 35013KT 00/M03 A2985 RMK A01 T00041028  RH  079%=      5-min Rain = 0
KAM1 151942Z 35015KT 00/M03 A2985 RMK A01 T00041026  RH  080%=      5-min Rain = 0
KAM1 151943Z 36015KT 00/M03 A2985 RMK A01 T00041028  RH  079%=      5-min Rain = 0
KAM1 151944Z 36015KT 00/M03 A2985 RMK A01 T00021028  RH  080%=      5-min Rain = 0
KAM1 151945Z 36014KT 00/M03 A2985 RMK A01 T00021028  RH  081%=      5-min Rain = 0
KAM1 151946Z 36013KT 00/M03 A2985 RMK A01 T00021027  RH  081%=      5-min Rain = 0
KAM1 151947Z 35015KT 00/M03 A2985 RMK A01 T00031026  RH  081%=      5-min Rain = 0
KAM1 151948Z 36013KT 00/M03 A2985 RMK A01 T00021028  RH  081%=      5-min Rain = 0
KAM1 151949Z 35014KT 00/M03 A2985 RMK A01 T00011027  RH  081%=      5-min Rain = 0
KAM1 151950Z 34014KT 00/M03 A2985 RMK A01 T00011027  RH  082%=      5-min Rain = 0
KAM1 151951Z 34013KT 00/M03 A2985 RMK A01 T00011027  RH  082%=      5-min Rain = 0
KAM1 151952Z 34013KT 00/M03 A2985 RMK A01 T00011027  RH  082%=      5-min Rain = 0
KAM1 151953Z 35012KT 00/03 A2985 RMK A01 T00000-26  RH  082%=      5-min Rain = 0
KAM1 151954Z 34012G17KT 00/M03 A2985 RMK A01 T00011025  RH  083%=      5-min Rain = 0
KAM1 151955Z 36011KT 00/M02 A2985 RMK A01 T00021024  RH  083%=      5-min Rain = 0
KAM1 151956Z 00011KT 00/M02 A2985 RMK A01 T00041023  RH  082%=      5-min Rain = 0
KAM1 151957Z 01013KT 01/M02 A2985 RMK A01 T00051024  RH  081%=      5-min Rain = 0
KAM1 151958Z 01012KT 00/M03 A2985 RMK A01 T00031026  RH  081%=      5-min Rain = 0
KAM1 151959Z 01015KT 00/M03 A2985 RMK A01 T00031026  RH  081%=      5-min Rain = 0
KAM1 152000Z 01014KT 00/M03 A2985 RMK A01 T00021027  RH  081%=      5-min Rain = 0
KAM1 152001Z 36014KT 00/M03 A2985 RMK A01 T00011027  RH  081%=      5-min Rain = 0
KAM1 152002Z 00014KT 00/M03 A2985 RMK A01 T00011027  RH  082%=      5-min Rain = 0
KAM1 152003Z 36015KT 00/03 A2985 RMK A01 T00000-27  RH  082%=      5-min Rain = 0
KAM1 152004Z 01012KT 00/03 A2985 RMK A01 T00000-27  RH  082%=      5-min Rain = 0
KAM1 152005Z 00013KT 00/03 A2985 RMK A01 T00000-26  RH  082%=      5-min Rain = 0
KAM1 152006Z 01009KT 00/M03 A2984 RMK A01 T00011025  RH  082%=      5-min Rain = 0
KAM1 152007Z 36010KT 00/M03 A2984 RMK A01 T00031025  RH  082%=      5-min Rain = 0
KAM1 152008Z 35014KT 00/M03 A2984 RMK A01 T00031025  RH  081%=      5-min Rain = 0
KAM1 152009Z 00013KT 00/M03 A2984 RMK A01 T00041026  RH  081%=      5-min Rain = 0
KAM1 152010Z 00012KT 00/M03 A2984 RMK A01 T00031026  RH  081%=      5-min Rain = 0
KAM1 152011Z 01009KT 00/M03 A2984 RMK A01 T00041025  RH  081%=      5-min Rain = 0
KAM1 152012Z 36013KT 01/M02 A2984 RMK A01 T00061024  RH  080%=      5-min Rain = 0
KAM1 152013Z 35013KT 01/M03 A2984 RMK A01 T00051027  RH  079%=      5-min Rain = 0
KAM1 152014Z 35012KT 00/M03 A2984 RMK A01 T00041028  RH  079%=      5-min Rain = 0
KAM1 152015Z 35014KT 00/M03 A2984 RMK A01 T00031027  RH  080%=      5-min Rain = 0
KAM1 152016Z 35014KT 00/M03 A2984 RMK A01 T00041027  RH  080%=      5-min Rain = 0
KAM1 152017Z 34012KT 00/M03 A2984 RMK A01 T00031029  RH  079%=      5-min Rain = 0
KAM1 152018Z 35009KT 00/M03 A2984 RMK A01 T00031027  RH  080%=      5-min Rain = 0
KAM1 152019Z 35012KT 01/M02 A2984 RMK A01 T00061023  RH  081%=      5-min Rain = 0
KAM1 152020Z 36015KT 01/M03 A2984 RMK A01 T00071026  RH  078%=      5-min Rain = 0
KAM1 152021Z 01012G17KT 01/M03 A2984 RMK A01 T00061027  RH  078%=      5-min Rain = 0
KAM1 152022Z 01014KT 01/M03 A2984 RMK A01 T00061028  RH  078%=      5-min Rain = 0
KAM1 152023Z 01012KT 01/M03 A2984 RMK A01 T00051030  RH  078%=      5-min Rain = 0
KAM1 152024Z 35010KT 01/M03 A2984 RMK A01 T00051028  RH  079%=      5-min Rain = 0
KAM1 152025Z 00013KT 01/M03 A2984 RMK A01 T00061027  RH  078%=      5-min Rain = 0
KAM1 152026Z 36013KT 01/M03 A2984 RMK A01 T00061028  RH  078%=      5-min Rain = 0
KAM1 152027Z 36013KT 01/M03 A2984 RMK A01 T00061029  RH  077%=      5-min Rain = 0
KAM1 152028Z 36013KT 01/M03 A2984 RMK A01 T00051029  RH  078%=      5-min Rain = 0
KAM1 152029Z 00012KT 01/M03 A2984 RMK A01 T00061028  RH  078%=      5-min Rain = 0
KAM1 152030Z 01011G16KT 01/M03 A2984 RMK A01 T00061028  RH  078%=      5-min Rain = 0
KAM1 152031Z 02013KT 01/M03 A2984 RMK A01 T00071028  RH  077%=      5-min Rain = 0
KAM1 152032Z 01010KT 01/M03 A2984 RMK A01 T00061029  RH  077%=      5-min Rain = 0
KAM1 152033Z 01011KT 01/M03 A2984 RMK A01 T00061028  RH  078%=      5-min Rain = 0
KAM1 152034Z 02013KT 01/M03 A2984 RMK A01 T00071027  RH  078%=      5-min Rain = 0
KAM1 152035Z 01009KT 01/M03 A2985 RMK A01 T00081028  RH  077%=      5-min Rain = 0
KAM1 152036Z 01012KT 01/M03 A2985 RMK A01 T00081027  RH  078%=      5-min Rain = 0
KAM1 152037Z 01013KT 01/M03 A2984 RMK A01 T00091027  RH  077%=      5-min Rain = 0
KAM1 152038Z 01013KT 01/M03 A2984 RMK A01 T00091028  RH  077%=      5-min Rain = 0
KAM1 152039Z 01011KT 01/M03 A2984 RMK A01 T00071029  RH  077%=      5-min Rain = 0
KAM1 152040Z 01010KT 01/M03 A2984 RMK A01 T00061028  RH  078%=      5-min Rain = 0
KAM1 152041Z 01010KT 01/M03 A2984 RMK A01 T00071027  RH  078%=      5-min Rain = 0
KAM1 152042Z 00011KT 01/M03 A2984 RMK A01 T00071027  RH  078%=      5-min Rain = 0
KAM1 152043Z 00013KT 01/M03 A2984 RMK A01 T00081028  RH  077%=      5-min Rain = 0
KAM1 152044Z 35012KT 01/M03 A2984 RMK A01 T00061028  RH  078%=      5-min Rain = 0
KAM1 152045Z 35012KT 01/M03 A2984 RMK A01 T00071027  RH  078%=      5-min Rain = 0
KAM1 152046Z 34012KT 01/M03 A2984 RMK A01 T00071028  RH  078%=      5-min Rain = 0
KAM1 152047Z 35012KT 01/M03 A2984 RMK A01 T00071028  RH  078%=      5-min Rain = 0
KAM1 152048Z 01010KT 01/M03 A2985 RMK A01 T00081026  RH  078%=      5-min Rain = 0
KAM1 152049Z 00013KT 01/M02 A2985 RMK A01 T00101024  RH  078%=      5-min Rain = 0
KAM1 152050Z 01012KT 01/M03 A2985 RMK A01 T00101027  RH  076%=      5-min Rain = 0
KAM1 152051Z 00012KT 01/M03 A2985 RMK A01 T00091027  RH  077%=      5-min Rain = 0
KAM1 152052Z 02010KT 01/M03 A2985 RMK A01 T00101027  RH  077%=      5-min Rain = 0
KAM1 152053Z 02011KT 01/M03 A2985 RMK A01 T00101027  RH  077%=      5-min Rain = 0
KAM1 152054Z 01010KT 01/M03 A2985 RMK A01 T00091027  RH  077%=      5-min Rain = 0
KAM1 152055Z 01008KT 01/M03 A2985 RMK A01 T00081027  RH  077%=      5-min Rain = 0
KAM1 152056Z 00010KT 01/M03 A2985 RMK A01 T00091026  RH  078%=      5-min Rain = 0
KAM1 152057Z 01009KT 01/M03 A2985 RMK A01 T00101025  RH  077%=      5-min Rain = 0
KAM1 152058Z 01007KT 01/M03 A2985 RMK A01 T00111026  RH  076%=      5-min Rain = 0
KAM1 152059Z 02010KT 01/M03 A2985 RMK A01 T00111025  RH  077%=      5-min Rain = 0
KAM1 152100Z 01012KT 01/M03 A2985 RMK A01 T00121026  RH  076%=      5-min Rain = 0
KAM1 152101Z 01011KT 01/M03 A2985 RMK A01 T00111027  RH  076%=      5-min Rain = 0
KAM1 152102Z 01010KT 01/M03 A2985 RMK A01 T00081028  RH  077%=      5-min Rain = 0
KAM1 152103Z 01012KT 01/M03 A2985 RMK A01 T00081027  RH  077%=      5-min Rain = 0
KAM1 152104Z 02012KT 01/M03 A2986 RMK A01 T00081027  RH  077%=      5-min Rain = 0
KAM1 152105Z 01010KT 01/M03 A2986 RMK A01 T00081027  RH  077%=      5-min Rain = 0
KAM1 152106Z 02010KT 01/M03 A2986 RMK A01 T00081027  RH  078%=      5-min Rain = 0
KAM1 152107Z 01011KT 01/M03 A2986 RMK A01 T00071027  RH  078%=      5-min Rain = 0
KAM1 152108Z 01009KT 01/M03 A2985 RMK A01 T00081026  RH  078%=      5-min Rain = 0
KAM1 152109Z 35010KT 01/M02 A2985 RMK A01 T00101024  RH  078%=      5-min Rain = 0
KAM1 152110Z 36011KT 01/M03 A2985 RMK A01 T00111026  RH  076%=      5-min Rain = 0
KAM1 152111Z 00012KT 01/M03 A2985 RMK A01 T00111027  RH  076%=      5-min Rain = 0
KAM1 152112Z 01013KT 01/M03 A2985 RMK A01 T00111026  RH  076%=      5-min Rain = 0
KAM1 152113Z 00011KT 01/M03 A2985 RMK A01 T00101027  RH  076%=      5-min Rain = 0
KAM1 152114Z 36009KT 01/M03 A2985 RMK A01 T00101026  RH  077%=      5-min Rain = 0
KAM1 152115Z 02010KT 01/M03 A2985 RMK A01 T00101025  RH  077%=      5-min Rain = 0
KAM1 152116Z 01012KT 01/M03 A2985 RMK A01 T00111025  RH  076%=      5-min Rain = 0
KAM1 152117Z 00013KT 01/M03 A2985 RMK A01 T00111027  RH  076%=      5-min Rain = 0
KAM1 152118Z 36012KT 01/M03 A2985 RMK A01 T00101028  RH  076%=      5-min Rain = 0
KAM1 152119Z 36011KT 01/M03 A2985 RMK A01 T00091028  RH  076%=      5-min Rain = 0
KAM1 152120Z 36010KT 01/M03 A2985 RMK A01 T00091028  RH  076%=      5-min Rain = 0
KAM1 152121Z 00009KT 01/M03 A2985 RMK A01 T00091029  RH  076%=      5-min Rain = 0
KAM1 152122Z 36008KT 01/M03 A2986 RMK A01 T00091029  RH  076%=      5-min Rain = 0
KAM1 152123Z 36010KT 01/M03 A2986 RMK A01 T00101029  RH  075%=      5-min Rain = 0
KAM1 152124Z 36009KT 01/M03 A2986 RMK A01 T00111030  RH  074%=      5-min Rain = 0
KAM1 152125Z 36009KT 01/M03 A2986 RMK A01 T00101030  RH  074%=      5-min Rain = 0
KAM1 152126Z 00010KT 01/M03 A2986 RMK A01 T00101030  RH  074%=      5-min Rain = 0
KAM1 152127Z 00011G16KT 01/M03 A2986 RMK A01 T00101030  RH  075%=      5-min Rain = 0
KAM1 152128Z 01012KT 01/M03 A2986 RMK A01 T00101030  RH  075%=      5-min Rain = 0
KAM1 152129Z 01012KT 01/M03 A2986 RMK A01 T00091031  RH  075%=      5-min Rain = 0
KAM1 152130Z 02009KT 01/M03 A2986 RMK A01 T00081031  RH  075%=      5-min Rain = 0
KAM1 152131Z 00011KT 01/M03 A2986 RMK A01 T00081030  RH  076%=      5-min Rain = 0
KAM1 152132Z 01011KT 01/M03 A2986 RMK A01 T00081030  RH  075%=      5-min Rain = 0
KAM1 152133Z 01011KT 01/M03 A2986 RMK A01 T00091030  RH  075%=      5-min Rain = 0
KAM1 152134Z 01011KT 01/M03 A2986 RMK A01 T00091030  RH  075%=      5-min Rain = 0
KAM1 152135Z 01011KT 01/M03 A2986 RMK A01 T00091030  RH  075%=      5-min Rain = 0
KAM1 152136Z 00008KT 01/M03 A2986 RMK A01 T00091030  RH  075%=      5-min Rain = 0
KAM1 152137Z 01010KT 01/M03 A2986 RMK A01 T00101029  RH  075%=      5-min Rain = 0
KAM1 152138Z 02012KT 01/M03 A2986 RMK A01 T00101029  RH  075%=      5-min Rain = 0
KAM1 152139Z 02010KT 01/M03 A2986 RMK A01 T00111029  RH  075%=      5-min Rain = 0
KAM1 152140Z 02010KT 01/M03 A2986 RMK A01 T00111029  RH  075%=      5-min Rain = 0
KAM1 152141Z 36012KT 01/M03 A2986 RMK A01 T00111029  RH  075%=      5-min Rain = 0
KAM1 152142Z 02011KT 01/M03 A2986 RMK A01 T00111029  RH  074%=      5-min Rain = 0
KAM1 152143Z 01008KT 01/M03 A2986 RMK A01 T00111029  RH  074%=      5-min Rain = 0
KAM1 152144Z 36011KT 01/M03 A2986 RMK A01 T00111029  RH  074%=      5-min Rain = 0
KAM1 152145Z 01009KT 01/M03 A2986 RMK A01 T00121029  RH  074%=      5-min Rain = 0
KAM1 152146Z 00009KT 01/M03 A2986 RMK A01 T00121029  RH  074%=      5-min Rain = 0
KAM1 152147Z 01009KT 01/M03 A2986 RMK A01 T00131029  RH  073%=      5-min Rain = 0
KAM1 152148Z 01010KT 01/M03 A2986 RMK A01 T00131029  RH  073%=      5-min Rain = 0
KAM1 152149Z 00009KT 01/M03 A2986 RMK A01 T00131031  RH  073%=      5-min Rain = 0
KAM1 152150Z 00008KT 01/M03 A2986 RMK A01 T00121031  RH  073%=      5-min Rain = 0
KAM1 152151Z 01009KT 01/M03 A2986 RMK A01 T00121030  RH  073%=      5-min Rain = 0
KAM1 152152Z 36011KT 01/M03 A2986 RMK A01 T00121030  RH  073%=      5-min Rain = 0
KAM1 152153Z 36011KT 01/M03 A2986 RMK A01 T00121031  RH  073%=      5-min Rain = 0
KAM1 152154Z 36013KT 01/M03 A2986 RMK A01 T00121031  RH  073%=      5-min Rain = 0
KAM1 152155Z 36011KT 01/M03 A2986 RMK A01 T00111031  RH  073%=      5-min Rain = 0
KAM1 152156Z 35013KT 01/M03 A2986 RMK A01 T00101031  RH  074%=      5-min Rain = 0
KAM1 152157Z 00012KT 01/M03 A2986 RMK A01 T00111030  RH  074%=      5-min Rain = 0
KAM1 152158Z 02010KT 01/M03 A2986 RMK A01 T00121029  RH  074%=      5-min Rain = 0
KAM1 152159Z 02011KT 01/M03 A2986 RMK A01 T00131029  RH  074%=      5-min Rain = 0
KAM1 152200Z 01012KT 01/M03 A2986 RMK A01 T00121030  RH  074%=      5-min Rain = 0
KAM1 152201Z 02011KT 01/M03 A2986 RMK A01 T00121030  RH  074%=      5-min Rain = 0
KAM1 152202Z 02009KT 01/M03 A2986 RMK A01 T00121030  RH  074%=      5-min Rain = 0
KAM1 152203Z 01009KT 01/M03 A2986 RMK A01 T00111031  RH  074%=      5-min Rain = 0
KAM1 152204Z 01010KT 01/M03 A2986 RMK A01 T00111031  RH  074%=      5-min Rain = 0
KAM1 152205Z 02011KT 01/M03 A2987 RMK A01 T00111031  RH  074%=      5-min Rain = 0
KAM1 152206Z 02009KT 01/M03 A2987 RMK A01 T00101031  RH  074%=      5-min Rain = 0
KAM1 152207Z 03010KT 01/M03 A2986 RMK A01 T00101031  RH  074%=      5-min Rain = 0
KAM1 152208Z 03010KT 01/M03 A2986 RMK A01 T00101031  RH  074%=      5-min Rain = 0
KAM1 152209Z 03011KT 01/M03 A2986 RMK A01 T00101031  RH  074%=      5-min Rain = 0
KAM1 152210Z 04010KT 01/M03 A2986 RMK A01 T00091032  RH  074%=      5-min Rain = 0
KAM1 152211Z 04011KT 01/M03 A2986 RMK A01 T00081032  RH  074%=      5-min Rain = 0
KAM1 152212Z 03010KT 01/M03 A2986 RMK A01 T00081032  RH  075%=      5-min Rain = 0
KAM1 152213Z 03010KT 01/M03 A2986 RMK A01 T00081032  RH  075%=      5-min Rain = 0
KAM1 152214Z 02010KT 01/M03 A2986 RMK A01 T00081031  RH  075%=      5-min Rain = 0
KAM1 152215Z 02009KT 01/M03 A2986 RMK A01 T00091030  RH  075%=      5-min Rain = 0
KAM1 152216Z 02008KT 01/M03 A2986 RMK A01 T00111029  RH  075%=      5-min Rain = 0
KAM1 152217Z 01009KT 01/M03 A2986 RMK A01 T00121028  RH  075%=      5-min Rain = 0
KAM1 152218Z 01008KT 01/M03 A2986 RMK A01 T00121029  RH  074%=      5-min Rain = 0
KAM1 152219Z 01009KT 01/M03 A2986 RMK A01 T00121029  RH  074%=      5-min Rain = 0
KAM1 152220Z 02007KT 01/M03 A2986 RMK A01 T00131029  RH  074%=      5-min Rain = 0
KAM1 152221Z 03008KT 01/M03 A2986 RMK A01 T00141029  RH  073%=      5-min Rain = 0
KAM1 152222Z 03010KT 01/M03 A2986 RMK A01 T00141029  RH  073%=      5-min Rain = 0
KAM1 152223Z 03009KT 01/M03 A2986 RMK A01 T00141030  RH  073%=      5-min Rain = 0
KAM1 152224Z 03012KT 01/M03 A2986 RMK A01 T00141029  RH  073%=      5-min Rain = 0
KAM1 152225Z 03010KT 02/M03 A2986 RMK A01 T00151029  RH  073%=      5-min Rain = 0
KAM1 152226Z 03012KT 02/M03 A2986 RMK A01 T00161028  RH  073%=      5-min Rain = 0
KAM1 152227Z 03013KT 02/M03 A2986 RMK A01 T00161028  RH  072%=      5-min Rain = 0
KAM1 152228Z 02013KT 02/M03 A2986 RMK A01 T00161029  RH  072%=      5-min Rain = 0
KAM1 152229Z 02010KT 02/M03 A2986 RMK A01 T00151031  RH  072%=      5-min Rain = 0
KAM1 152230Z 03011KT 02/M03 A2986 RMK A01 T00151030  RH  072%=      5-min Rain = 0
KAM1 152231Z 02012KT 02/M03 A2986 RMK A01 T00151030  RH  072%=      5-min Rain = 0
KAM1 152232Z 02012KT 02/M03 A2986 RMK A01 T00151031  RH  072%=      5-min Rain = 0
KAM1 152233Z 01012KT 01/M03 A2986 RMK A01 T00141031  RH  072%=      5-min Rain = 0
KAM1 152234Z 02013KT 01/M03 A2986 RMK A01 T00141030  RH  072%=      5-min Rain = 0
KAM1 152235Z 02012KT 01/M03 A2986 RMK A01 T00141030  RH  072%=      5-min Rain = 0
KAM1 152236Z 01012KT 01/M03 A2986 RMK A01 T00131031  RH  072%=      5-min Rain = 0
KAM1 152237Z 02012KT 01/M03 A2986 RMK A01 T00141030  RH  073%=      5-min Rain = 0
KAM1 152238Z 02010KT 01/M03 A2985 RMK A01 T00141030  RH  072%=      5-min Rain = 0
KAM1 152239Z 02013KT 01/M03 A2985 RMK A01 T00141030  RH  073%=      5-min Rain = 0
KAM1 152240Z 02014KT 01/M03 A2985 RMK A01 T00141030  RH  072%=      5-min Rain = 0
KAM1 152241Z 02010KT 01/M03 A2985 RMK A01 T00141030  RH  073%=      5-min Rain = 0
KAM1 152242Z 01012KT 01/M03 A2985 RMK A01 T00131030  RH  073%=      5-min Rain = 0
KAM1 152243Z 01013KT 01/M03 A2985 RMK A01 T00131031  RH  073%=      5-min Rain = 0
KAM1 152244Z 01013KT 01/M03 A2985 RMK A01 T00111031  RH  073%=      5-min Rain = 0
KAM1 152245Z 02014KT 01/M03 A2985 RMK A01 T00111031  RH  073%=      5-min Rain = 0
KAM1 152246Z 01013KT 01/M03 A2985 RMK A01 T00111031  RH  073%=      5-min Rain = 0
KAM1 152247Z 02013KT 01/M03 A2985 RMK A01 T00111031  RH  073%=      5-min Rain = 0
KAM1 152248Z 02014KT 01/M03 A2985 RMK A01 T00111032  RH  073%=      5-min Rain = 0
KAM1 152249Z 02013KT 01/M03 A2985 RMK A01 T00091032  RH  074%=      5-min Rain = 0
KAM1 152250Z 02014KT 01/M03 A2985 RMK A01 T00091032  RH  074%=      5-min Rain = 0
KAM1 152251Z 01013KT 01/M03 A2985 RMK A01 T00091032  RH  074%=      5-min Rain = 0
KAM1 152252Z 02015KT 01/M03 A2985 RMK A01 T00091032  RH  074%=      5-min Rain = 0
KAM1 152253Z 01014KT 01/M03 A2985 RMK A01 T00081032  RH  074%=      5-min Rain = 0
KAM1 152254Z 01015KT 01/M03 A2985 RMK A01 T00081032  RH  074%=      5-min Rain = 0
KAM1 152255Z 01013KT 01/M03 A2985 RMK A01 T00071033  RH  075%=      5-min Rain = 0
KAM1 152256Z 01013KT 01/M03 A2985 RMK A01 T00071033  RH  075%=      5-min Rain = 0
KAM1 152257Z 02015KT 01/M03 A2985 RMK A01 T00061033  RH  075%=      5-min Rain = 0
KAM1 152258Z 01013KT 01/M03 A2985 RMK A01 T00061033  RH  075%=      5-min Rain = 0
KAM1 152259Z 01014KT 01/M03 A2985 RMK A01 T00061033  RH  075%=      5-min Rain = 0
KAM1 152300Z 01013KT 01/M03 A2984 RMK A01 T00061033  RH  075%=      5-min Rain = 0
KAM1 152301Z 01014KT 01/M03 A2984 RMK A01 T00051033  RH  076%=      5-min Rain = 0
KAM1 152302Z 01013KT 01/M03 A2985 RMK A01 T00051033  RH  076%=      5-min Rain = 0
KAM1 152303Z 01011KT 01/M03 A2985 RMK A01 T00051033  RH  076%=      5-min Rain = 0
KAM1 152304Z 02010KT 00/M03 A2985 RMK A01 T00041033  RH  076%=      5-min Rain = 0
KAM1 152305Z 02011KT 01/M03 A2985 RMK A01 T00051032  RH  076%=      5-min Rain = 0
KAM1 152306Z 01012KT 01/M03 A2985 RMK A01 T00051032  RH  076%=      5-min Rain = 0
KAM1 152307Z 02015KT 00/M03 A2985 RMK A01 T00041033  RH  076%=      5-min Rain = 0
KAM1 152308Z 02015KT 00/M03 A2985 RMK A01 T00041033  RH  076%=      5-min Rain = 0
KAM1 152309Z 02016KT 00/M03 A2985 RMK A01 T00031034  RH  076%=      5-min Rain = 0
KAM1 152310Z 01014KT 00/M03 A2985 RMK A01 T00021034  RH  077%=      5-min Rain = 0
KAM1 152311Z 01014KT 00/M03 A2985 RMK A01 T00021034  RH  077%=      5-min Rain = 0
KAM1 152312Z 01014KT 00/M03 A2985 RMK A01 T00021034  RH  077%=      5-min Rain = 0
KAM1 152313Z 02015KT 00/M03 A2985 RMK A01 T00011033  RH  077%=      5-min Rain = 0
KAM1 152314Z 01015G20KT 00/M03 A2985 RMK A01 T00011034  RH  078%=      5-min Rain = 0
KAM1 152315Z 01016KT 00/03 A2985 RMK A01 T00000-34  RH  078%=      5-min Rain = 0
KAM1 152316Z 01016KT 00/03 A2985 RMK A01 T00-00-34  RH  078%=      5-min Rain = 0
KAM1 152317Z 01018KT M00/M03 A2985 RMK A01 T10011034  RH  078%=      5-min Rain = 0
KAM1 152318Z 01017KT M00/M03 A2985 RMK A01 T10011034  RH  079%=      5-min Rain = 0
KAM1 152319Z 02016KT M00/M03 A2985 RMK A01 T10011033  RH  079%=      5-min Rain = 0
KAM1 152320Z 02015KT M00/M03 A2985 RMK A01 T10021033  RH  079%=      5-min Rain = 0
KAM1 152321Z 02014KT M00/M03 A2985 RMK A01 T10021033  RH  080%=      5-min Rain = 0
KAM1 152322Z 02015KT M00/M03 A2985 RMK A01 T10031033  RH  080%=      5-min Rain = 0
KAM1 152323Z 02014KT M00/M03 A2985 RMK A01 T10031033  RH  080%=      5-min Rain = 0
KAM1 152324Z 01012KT M00/M03 A2985 RMK A01 T10031033  RH  080%=      5-min Rain = 0
KAM1 152325Z 02010KT M00/M03 A2985 RMK A01 T10031033  RH  080%=      5-min Rain = 0
KAM1 152326Z 02013KT M00/M03 A2985 RMK A01 T10041033  RH  080%=      5-min Rain = 0
KAM1 152327Z 02013G18KT M00/M03 A2985 RMK A01 T10041033  RH  081%=      5-min Rain = 0
KAM1 152328Z 02014KT M00/M03 A2985 RMK A01 T10041033  RH  081%=      5-min Rain = 0
KAM1 152329Z 02013KT M00/M03 A2985 RMK A01 T10041033  RH  081%=      5-min Rain = 0
KAM1 152330Z 02014KT M00/M03 A2985 RMK A01 T10041033  RH  081%=      5-min Rain = 0
KAM1 152331Z 02014KT M01/M03 A2985 RMK A01 T10051033  RH  081%=      5-min Rain = 0
KAM1 152332Z 01016KT M01/M03 A2985 RMK A01 T10051033  RH  082%=      5-min Rain = 0
KAM1 152333Z 01014KT M01/M03 A2985 RMK A01 T10051032  RH  082%=      5-min Rain = 0
KAM1 152334Z 01012KT M01/M03 A2985 RMK A01 T10051032  RH  082%=      5-min Rain = 0
KAM1 152335Z 01012KT M01/M03 A2985 RMK A01 T10061033  RH  082%=      5-min Rain = 0
KAM1 152336Z 01013KT M01/M03 A2985 RMK A01 T10071033  RH  082%=      5-min Rain = 0
KAM1 152337Z 02015KT M01/M03 A2985 RMK A01 T10071033  RH  083%=      5-min Rain = 0
KAM1 152338Z 01014KT M01/M03 A2985 RMK A01 T10071033  RH  083%=      5-min Rain = 0
KAM1 152339Z 02012KT M01/M03 A2985 RMK A01 T10071033  RH  083%=      5-min Rain = 0
KAM1 152340Z 01012KT M01/M03 A2985 RMK A01 T10071033  RH  083%=      5-min Rain = 0
KAM1 152341Z 01013KT M01/M03 A2985 RMK A01 T10081032  RH  083%=      5-min Rain = 0
KAM1 152342Z 01014KT M01/M03 A2986 RMK A01 T10081033  RH  084%=      5-min Rain = 0
KAM1 152343Z 02013KT M01/M03 A2986 RMK A01 T10081032  RH  084%=      5-min Rain = 0
KAM1 152344Z 02012KT M01/M03 A2986 RMK A01 T10071032  RH  084%=      5-min Rain = 0
KAM1 152345Z 02012KT M01/M03 A2986 RMK A01 T10071032  RH  084%=      5-min Rain = 0
KAM1 152346Z 02012KT M01/M03 A2986 RMK A01 T10071031  RH  084%=      5-min Rain = 0
KAM1 152347Z 01011KT M01/M03 A2986 RMK A01 T10071031  RH  084%=      5-min Rain = 0
KAM1 152348Z 02014KT M01/M03 A2986 RMK A01 T10071031  RH  084%=      5-min Rain = 0
KAM1 152349Z 02011G16KT M01/M03 A2986 RMK A01 T10071031  RH  084%=      5-min Rain = 0
KAM1 152350Z 02011KT M01/M03 A2986 RMK A01 T10071030  RH  084%=      5-min Rain = 0
KAM1 152351Z 02017KT M01/M03 A2986 RMK A01 T10061030  RH  084%=      5-min Rain = 0
KAM1 152352Z 01015KT M01/M03 A2985 RMK A01 T10071030  RH  084%=      5-min Rain = 0
KAM1 152353Z 02017KT M01/M03 A2985 RMK A01 T10071031  RH  084%=      5-min Rain = 0
KAM1 152354Z 02016KT M01/M03 A2985 RMK A01 T10071032  RH  083%=      5-min Rain = 0
KAM1 152355Z 02017KT M01/M03 A2985 RMK A01 T10081032  RH  084%=      5-min Rain = 0
KAM1 152356Z 02015KT M01/M03 A2985 RMK A01 T10091032  RH  084%=      5-min Rain = 0
KAM1 152357Z 01018KT M01/M03 A2985 RMK A01 T10091032  RH  084%=      5-min Rain = 0
KAM1 152358Z 02018G23KT M01/M03 A2985 RMK A01 T10091032  RH  085%=      5-min Rain = 0
KAM1 152359Z 01017G24KT M01/M03 A2985 RMK A01 T10091031  RH  085%=      5-min Rain = 0
KAM1 160000Z 01016KT M01/M03 A2985 RMK A01 T10091031  RH  085%=      5-min Rain = 0
KAM1 160001Z 01017KT M01/M03 A2985 RMK A01 T10091031  RH  085%=      5-min Rain = 0
KAM1 160002Z 02016KT M01/M03 A2985 RMK A01 T10091031  RH  085%=      5-min Rain = 0
KAM1 160003Z 02015G20KT M01/M03 A2985 RMK A01 T10091031  RH  085%=      5-min Rain = 0
KAM1 160004Z 01016KT M01/M03 A2985 RMK A01 T10091031  RH  085%=      5-min Rain = 0
KAM1 160005Z 02014G19KT M01/M03 A2985 RMK A01 T10091031  RH  085%=      5-min Rain = 0
KAM1 160006Z 02015KT M01/M03 A2985 RMK A01 T10091031  RH  085%=      5-min Rain = 0
KAM1 160007Z 02016KT M01/M03 A2985 RMK A01 T10091031  RH  085%=      5-min Rain = 0
KAM1 160008Z 02015KT M01/M03 A2985 RMK A01 T10091031  RH  085%=      5-min Rain = 0
KAM1 160009Z 01014KT M01/M03 A2985 RMK A01 T10091031  RH  085%=      5-min Rain = 0
KAM1 160010Z 02014G20KT M01/M03 A2985 RMK A01 T10091031  RH  085%=      5-min Rain = 0
KAM1 160011Z 02017G22KT M01/M03 A2985 RMK A01 T10091031  RH  085%=      5-min Rain = 0
KAM1 160012Z 02014KT M01/M03 A2985 RMK A01 T10091030  RH  085%=      5-min Rain = 0
KAM1 160013Z 01015KT M01/M03 A2985 RMK A01 T10091030  RH  085%=      5-min Rain = 0
KAM1 160014Z 01015KT M01/M03 A2985 RMK A01 T10081030  RH  085%=      5-min Rain = 0
KAM1 160015Z 01013KT M01/M03 A2986 RMK A01 T10081030  RH  086%=      5-min Rain = 0
KAM1 160016Z 01016KT M01/M03 A2986 RMK A01 T10081029  RH  086%=      5-min Rain = 0
KAM1 160017Z 01014KT M01/M03 A2986 RMK A01 T10071029  RH  085%=      5-min Rain = 0
KAM1 160018Z 02013G19KT M01/M03 A2986 RMK A01 T10071029  RH  085%=      5-min Rain = 0
KAM1 160019Z 03014KT M01/M03 A2986 RMK A01 T10071030  RH  085%=      5-min Rain = 0
KAM1 160020Z 02011KT M01/M03 A2986 RMK A01 T10071030  RH  085%=      5-min Rain = 0
KAM1 160021Z 03011KT M01/M03 A2986 RMK A01 T10071029  RH  085%=      5-min Rain = 0
KAM1 160022Z 03012KT M01/M03 A2986 RMK A01 T10071029  RH  085%=      5-min Rain = 0
KAM1 160023Z 02014KT M01/M03 A2987 RMK A01 T10071029  RH  085%=      5-min Rain = 0
KAM1 160024Z 03012KT M01/M03 A2987 RMK A01 T10061029  RH  085%=      5-min Rain = 0
KAM1 160025Z 03014KT M01/M03 A2987 RMK A01 T10061029  RH  085%=      5-min Rain = 0
KAM1 160026Z 03014KT M01/M03 A2987 RMK A01 T10061029  RH  085%=      5-min Rain = 0
KAM1 160027Z 03013KT M01/M03 A2987 RMK A01 T10061029  RH  084%=      5-min Rain = 0
KAM1 160028Z 02012KT M01/M03 A2987 RMK A01 T10061029  RH  084%=      5-min Rain = 0
KAM1 160029Z 02013KT M01/M03 A2987 RMK A01 T10061029  RH  084%=      5-min Rain = 0
KAM1 160030Z 02013KT M01/M03 A2987 RMK A01 T10061029  RH  084%=      5-min Rain = 0
KAM1 160031Z 02011KT M01/M03 A2987 RMK A01 T10061029  RH  084%=      5-min Rain = 0
KAM1 160032Z 03011KT M01/M03 A2987 RMK A01 T10061029  RH  084%=      5-min Rain = 0
KAM1 160033Z 03012KT M01/M03 A2987 RMK A01 T10061029  RH  084%=      5-min Rain = 0
KAM1 160034Z 02013KT M01/M03 A2987 RMK A01 T10061029  RH  084%=      5-min Rain = 0
KAM1 160035Z 02016KT M01/M03 A2987 RMK A01 T10061029  RH  084%=      5-min Rain = 0
KAM1 160036Z 02014KT M01/M03 A2987 RMK A01 T10051029  RH  084%=      5-min Rain = 0
KAM1 160037Z 02014KT M01/M03 A2987 RMK A01 T10051029  RH  084%=      5-min Rain = 0
KAM1 160038Z 02012KT M01/M03 A2988 RMK A01 T10051029  RH  084%=      5-min Rain = 0
KAM1 160039Z 02011KT M01/M03 A2988 RMK A01 T10051029  RH  084%=      5-min Rain = 0
KAM1 160040Z 03012KT M01/M03 A2988 RMK A01 T10051029  RH  084%=      5-min Rain = 0
KAM1 160041Z 02012KT M01/M03 A2988 RMK A01 T10051029  RH  084%=      5-min Rain = 0
KAM1 160042Z 02010KT M01/M03 A2988 RMK A01 T10051029  RH  084%=      5-min Rain = 0
KAM1 160043Z 03010G16KT M01/M03 A2988 RMK A01 T10051029  RH  084%=      5-min Rain = 0
KAM1 160044Z 03012KT M01/M03 A2988 RMK A01 T10051029  RH  084%=      5-min Rain = 0
KAM1 160045Z 03015KT M01/M03 A2988 RMK A01 T10051029  RH  084%=      5-min Rain = 0
KAM1 160046Z 02015KT M01/M03 A2988 RMK A01 T10051029  RH  084%=      5-min Rain = 0
KAM1 160047Z 02012KT M01/M03 A2987 RMK A01 T10051029  RH  084%=      5-min Rain = 0
KAM1 160048Z 02014KT M01/M03 A2987 RMK A01 T10051028  RH  084%=      5-min Rain = 0
KAM1 160049Z 03012KT M01/M03 A2987 RMK A01 T10051028  RH  084%=      5-min Rain = 0
KAM1 160050Z 02014KT M01/M03 A2987 RMK A01 T10051028  RH  084%=      5-min Rain = 0
KAM1 160051Z 03012G17KT M01/M03 A2987 RMK A01 T10051028  RH  084%=      5-min Rain = 0
KAM1 160052Z 02010KT M01/M03 A2987 RMK A01 T10051028  RH  084%=      5-min Rain = 0
KAM1 160053Z 02013KT M01/M03 A2987 RMK A01 T10051028  RH  084%=      5-min Rain = 0
KAM1 160054Z 03014KT M01/M03 A2988 RMK A01 T10051028  RH  085%=      5-min Rain = 0
KAM1 160055Z 03014KT M01/M03 A2988 RMK A01 T10051028  RH  084%=      5-min Rain = 0
KAM1 160056Z 03012KT M01/M03 A2988 RMK A01 T10051028  RH  084%=      5-min Rain = 0
KAM1 160057Z 03014KT M01/M03 A2988 RMK A01 T10051028  RH  084%=      5-min Rain = 0
KAM1 160058Z 03013KT M01/M03 A2988 RMK A01 T10051028  RH  084%=      5-min Rain = 0
KAM1 160059Z 03014KT M00/M03 A2988 RMK A01 T10041028  RH  084%=      5-min Rain = 0
KAM1 160100Z 02014KT M01/M03 A2988 RMK A01 T10051028  RH  084%=      5-min Rain = 0
KAM1 160101Z 02012KT M01/M03 A2988 RMK A01 T10051028  RH  084%=      5-min Rain = 0
KAM1 160102Z 03011KT M01/M03 A2988 RMK A01 T10051028  RH  085%=      5-min Rain = 0
KAM1 160103Z 03010KT M01/M03 A2988 RMK A01 T10051027  RH  085%=      5-min Rain = 0
KAM1 160104Z 03008KT M01/M03 A2988 RMK A01 T10051027  RH  085%=      5-min Rain = 0
KAM1 160105Z 03009G14KT M01/M03 A2988 RMK A01 T10051027  RH  085%=      5-min Rain = 0
KAM1 160106Z 03011KT M01/M03 A2988 RMK A01 T10051027  RH  085%=      5-min Rain = 0
KAM1 160107Z 03011KT M01/M03 A2988 RMK A01 T10051027  RH  085%=      5-min Rain = 0
KAM1 160108Z 03011KT M01/M03 A2988 RMK A01 T10051027  RH  085%=      5-min Rain = 0
KAM1 160109Z 03012KT M00/M03 A2988 RMK A01 T10041027  RH  085%=      5-min Rain = 0
KAM1 160110Z 03013KT M00/M03 A2988 RMK A01 T10041027  RH  085%=      5-min Rain = 0
KAM1 160111Z 03013KT M00/M03 A2988 RMK A01 T10041027  RH  085%=      5-min Rain = 0
KAM1 160112Z 03013KT M00/M03 A2988 RMK A01 T10041027  RH  084%=      5-min Rain = 0
KAM1 160113Z 03013KT M00/M03 A2989 RMK A01 T10041027  RH  084%=      5-min Rain = 0
KAM1 160114Z 03011KT M00/M03 A2989 RMK A01 T10041027  RH  085%=      5-min Rain = 0
KAM1 160115Z 03008KT M00/M03 A2989 RMK A01 T10041027  RH  085%=      5-min Rain = 0
KAM1 160116Z 02009KT M00/M03 A2989 RMK A01 T10041027  RH  085%=      5-min Rain = 0
KAM1 160117Z 02011KT M00/M03 A2989 RMK A01 T10041027  RH  085%=      5-min Rain = 0
KAM1 160118Z 02012KT M00/M03 A2989 RMK A01 T10041027  RH  085%=      5-min Rain = 0
KAM1 160119Z 03011KT M00/M03 A2989 RMK A01 T10041027  RH  085%=      5-min Rain = 0
KAM1 160120Z 03011KT M01/M03 A2989 RMK A01 T10051027  RH  085%=      5-min Rain = 0
KAM1 160121Z 03011KT M01/M03 A2989 RMK A01 T10051027  RH  085%=      5-min Rain = 0
KAM1 160122Z 02010KT M01/M03 A2989 RMK A01 T10051027  RH  085%=      5-min Rain = 0
KAM1 160123Z 02012KT M01/M03 A2989 RMK A01 T10051027  RH  085%=      5-min Rain = 0
KAM1 160124Z 02011KT M01/M03 A2989 RMK A01 T10061027  RH  085%=      5-min Rain = 0
KAM1 160125Z 03010KT M01/M03 A2989 RMK A01 T10051027  RH  085%=      5-min Rain = 0
KAM1 160126Z 03009KT M01/M03 A2989 RMK A01 T10061027  RH  086%=      5-min Rain = 0
KAM1 160127Z 03010KT M01/M03 A2989 RMK A01 T10061027  RH  086%=      5-min Rain = 0
KAM1 160128Z 03012KT M01/M03 A2989 RMK A01 T10061027  RH  086%=      5-min Rain = 0
KAM1 160129Z 03012KT M01/M03 A2989 RMK A01 T10061028  RH  086%=      5-min Rain = 0
KAM1 160130Z 03013KT M01/M03 A2989 RMK A01 T10071028  RH  085%=      5-min Rain = 0
KAM1 160131Z 02012KT M01/M03 A2989 RMK A01 T10071029  RH  085%=      5-min Rain = 0
KAM1 160132Z 02013KT M01/M03 A2989 RMK A01 T10071029  RH  085%=      5-min Rain = 0
KAM1 160133Z 03011G16KT M01/M03 A2989 RMK A01 T10081029  RH  085%=      5-min Rain = 0
KAM1 160134Z 03011KT M01/M03 A2989 RMK A01 T10081029  RH  086%=      5-min Rain = 0
KAM1 160135Z 03010KT M01/M03 A2989 RMK A01 T10081028  RH  086%=      5-min Rain = 0
KAM1 160136Z 03012KT M01/M03 A2989 RMK A01 T10081028  RH  086%=      5-min Rain = 0
KAM1 160137Z 03013KT M01/M03 A2989 RMK A01 T10081028  RH  086%=      5-min Rain = 0
KAM1 160138Z 02012KT M01/M03 A2989 RMK A01 T10081028  RH  086%=      5-min Rain = 0
KAM1 160139Z 03013KT M01/M03 A2989 RMK A01 T10081028  RH  086%=      5-min Rain = 0
KAM1 160140Z 03013KT M01/M03 A2989 RMK A01 T10081028  RH  086%=      5-min Rain = 0
KAM1 160141Z 03012KT M01/M03 A2989 RMK A01 T10081028  RH  086%=      5-min Rain = 0
KAM1 160142Z 03010KT M01/M03 A2989 RMK A01 T10081028  RH  086%=      5-min Rain = 0
KAM1 160143Z 03011KT M01/M03 A2989 RMK A01 T10081028  RH  086%=      5-min Rain = 0
KAM1 160144Z 03010KT M01/M03 A2989 RMK A01 T10081028  RH  086%=      5-min Rain = 0
KAM1 160145Z 02010KT M01/M03 A2989 RMK A01 T10081028  RH  086%=      5-min Rain = 0
KAM1 160146Z 02010KT M01/M03 A2989 RMK A01 T10081028  RH  086%=      5-min Rain = 0
KAM1 160147Z 02009KT M01/M03 A2989 RMK A01 T10081028  RH  086%=      5-min Rain = 0
KAM1 160148Z 03012KT M01/M03 A2989 RMK A01 T10081028  RH  086%=      5-min Rain = 0
KAM1 160149Z 03012KT M01/M03 A2989 RMK A01 T10081027  RH  086%=      5-min Rain = 0
KAM1 160150Z 03011KT M01/M03 A2989 RMK A01 T10081028  RH  086%=      5-min Rain = 0
KAM1 160151Z 02011G16KT M01/M03 A2989 RMK A01 T10081028  RH  086%=      5-min Rain = 0
KAM1 160152Z 03014KT M01/M03 A2989 RMK A01 T10081028  RH  086%=      5-min Rain = 0
KAM1 160153Z 02011KT M01/M03 A2989 RMK A01 T10081028  RH  086%=      5-min Rain = 0
KAM1 160154Z 02011KT M01/M03 A299 RMK A01 T10081028  RH  086%=      5-min Rain = 0
KAM1 160155Z 03013KT M01/M03 A299 RMK A01 T10081028  RH  086%=      5-min Rain = 0
KAM1 160156Z 04011KT M01/M03 A299 RMK A01 T10081028  RH  086%=      5-min Rain = 0
KAM1 160157Z 04012KT M01/M03 A299 RMK A01 T10081028  RH  086%=      5-min Rain = 0
KAM1 160158Z 05013KT M01/M03 A299 RMK A01 T10081028  RH  086%=      5-min Rain = 0
KAM1 160159Z 04011KT M01/M03 A299 RMK A01 T10081028  RH  086%=      5-min Rain = 0
KAM1 160200Z 04011KT M01/M03 A299 RMK A01 T10081028  RH  087%=      5-min Rain = 0
KAM1 160201Z 04010KT M01/M03 A299 RMK A01 T10081027  RH  087%=      5-min Rain = 0
KAM1 160202Z 03010KT M01/M03 A299 RMK A01 T10081027  RH  087%=      5-min Rain = 0
KAM1 160203Z 03011KT M01/M03 A299 RMK A01 T10081027  RH  087%=      5-min Rain = 0
KAM1 160204Z 03012KT M01/M03 A299 RMK A01 T10081027  RH  087%=      5-min Rain = 0
KAM1 160205Z 04012KT M01/M03 A299 RMK A01 T10081028  RH  087%=      5-min Rain = 0
KAM1 160206Z 03014KT M01/M03 A299 RMK A01 T10081028  RH  087%=      5-min Rain = 0
KAM1 160207Z 04012KT M01/M03 A299 RMK A01 T10081027  RH  087%=      5-min Rain = 0
KAM1 160208Z 04010KT M01/M03 A299 RMK A01 T10081027  RH  087%=      5-min Rain = 0
KAM1 160209Z 05011KT M01/M03 A299 RMK A01 T10081027  RH  087%=      5-min Rain = 0
KAM1 160210Z 05014KT M01/M03 A299 RMK A01 T10081027  RH  087%=      5-min Rain = 0
KAM1 160211Z 04011KT M01/M03 A299 RMK A01 T10091028  RH  087%=      5-min Rain = 0
KAM1 160212Z 04010KT M01/M03 A299 RMK A01 T10091028  RH  087%=      5-min Rain = 0
KAM1 160213Z 05010KT M01/M03 A299 RMK A01 T10091028  RH  087%=      5-min Rain = 0
KAM1 160214Z 05011KT M01/M03 A299 RMK A01 T10101028  RH  087%=      5-min Rain = 0
KAM1 160215Z 05011KT M01/M03 A299 RMK A01 T10101028  RH  087%=      5-min Rain = 0
KAM1 160216Z 05012KT M01/M03 A2991 RMK A01 T10101029  RH  087%=      5-min Rain = 0
KAM1 160217Z 05012KT M01/M03 A2991 RMK A01 T10111029  RH  088%=      5-min Rain = 0
KAM1 160218Z 05012KT M01/M03 A2991 RMK A01 T10111029  RH  088%=      5-min Rain = 0
KAM1 160219Z 05010KT M01/M03 A2991 RMK A01 T10111028  RH  088%=      5-min Rain = 0
KAM1 160220Z 05011KT M01/M03 A2991 RMK A01 T10111029  RH  088%=      5-min Rain = 0
KAM1 160221Z 03009KT M01/M03 A2991 RMK A01 T10111029  RH  088%=      5-min Rain = 0
KAM1 160222Z 04009KT M01/M03 A2991 RMK A01 T10121030  RH  088%=      5-min Rain = 0
KAM1 160223Z 04012KT M01/M03 A2991 RMK A01 T10131030  RH  088%=      5-min Rain = 0
KAM1 160224Z 04010KT M01/M03 A2991 RMK A01 T10131030  RH  088%=      5-min Rain = 0
KAM1 160225Z 04008KT M01/M03 A2991 RMK A01 T10131030  RH  089%=      5-min Rain = 0
KAM1 160226Z 04009KT M01/M03 A2991 RMK A01 T10141031  RH  089%=      5-min Rain = 0
KAM1 160227Z 04009KT M02/M03 A2991 RMK A01 T10151031  RH  089%=      5-min Rain = 0
KAM1 160228Z 04009KT M02/M03 A2991 RMK A01 T10151031  RH  089%=      5-min Rain = 0
KAM1 160229Z 04009KT M02/M03 A2991 RMK A01 T10151030  RH  090%=      5-min Rain = 0
KAM1 160230Z 04008KT M02/M03 A2991 RMK A01 T10161030  RH  090%=      5-min Rain = 0
KAM1 160231Z 05008KT M02/M03 A2991 RMK A01 T10161030  RH  090%=      5-min Rain = 0
KAM1 160232Z 05007KT M02/M03 A2991 RMK A01 T10171031  RH  090%=      5-min Rain = 0
KAM1 160233Z 06007KT M02/M03 A2991 RMK A01 T10171031  RH  090%=      5-min Rain = 0
KAM1 160234Z 05008KT M02/M03 A2991 RMK A01 T10181031  RH  091%=      5-min Rain = 0
KAM1 160235Z 05008KT M02/M03 A2991 RMK A01 T10181031  RH  091%=      5-min Rain = 0
KAM1 160236Z 04009KT M02/M03 A2991 RMK A01 T10181031  RH  091%=      5-min Rain = 0
KAM1 160237Z 04009KT M02/M03 A2991 RMK A01 T10191031  RH  092%=      5-min Rain = 0
KAM1 160238Z 04008KT M02/M03 A2991 RMK A01 T10191030  RH  092%=      5-min Rain = 0
KAM1 160239Z 04008KT M02/M03 A2992 RMK A01 T10191031  RH  092%=      5-min Rain = 0
KAM1 160240Z 04007KT M02/M03 A2992 RMK A01 T10191031  RH  092%=      5-min Rain = 0
KAM1 160241Z 05008KT M02/M03 A2992 RMK A01 T10201032  RH  092%=      5-min Rain = 0
KAM1 160242Z 05007KT M02/M03 A2992 RMK A01 T10201032  RH  092%=      5-min Rain = 0
KAM1 160243Z 05007KT M02/M03 A2992 RMK A01 T10211032  RH  092%=      5-min Rain = 0
KAM1 160244Z 05007KT M02/M03 A2992 RMK A01 T10211032  RH  092%=      5-min Rain = 0
KAM1 160245Z 05007KT M02/M03 A2992 RMK A01 T10221032  RH  093%=      5-min Rain = 0
KAM1 160246Z 05006KT M02/M03 A2992 RMK A01 T10221032  RH  093%=      5-min Rain = 0
KAM1 160247Z 05006KT M02/M03 A2992 RMK A01 T10231033  RH  093%=      5-min Rain = 0
KAM1 160248Z 05007KT M02/M03 A2992 RMK A01 T10231032  RH  094%=      5-min Rain = 0
KAM1 160249Z 05006KT M02/M03 A2992 RMK A01 T10231032  RH  094%=      5-min Rain = 0
KAM1 160250Z 06006KT M02/M03 A2992 RMK A01 T10231031  RH  094%=      5-min Rain = 0
KAM1 160251Z 06006KT M02/M03 A2992 RMK A01 T10231032  RH  094%=      5-min Rain = 0
KAM1 160252Z 06007KT M02/M03 A2992 RMK A01 T10241032  RH  094%=      5-min Rain = 0
KAM1 160253Z 06006KT M02/M03 A2992 RMK A01 T10241031  RH  095%=      5-min Rain = 0
KAM1 160254Z 06006KT M02/M03 A2992 RMK A01 T10241031  RH  095%=      5-min Rain = 0
KAM1 160255Z 06006KT M02/M03 A2992 RMK A01 T10241032  RH  095%=      5-min Rain = 0
KAM1 160256Z 07006KT M03/M03 A2992 RMK A01 T10251032  RH  095%=      5-min Rain = 0
KAM1 160257Z 07006KT M03/M03 A2992 RMK A01 T10251032  RH  095%=      5-min Rain = 0
KAM1 160258Z 07006KT M03/M03 A2992 RMK A01 T10261033  RH  095%=      5-min Rain = 0
KAM1 160259Z 07006KT M03/M03 A2992 RMK A01 T10271034  RH  095%=      5-min Rain = 0
KAM1 160300Z 07006KT M03/M03 A2992 RMK A01 T10271034  RH  095%=      5-min Rain = 0
KAM1 160301Z 06006KT M03/M03 A2992 RMK A01 T10281034  RH  095%=      5-min Rain = 0
KAM1 160302Z 06005KT M03/M03 A2993 RMK A01 T10281034  RH  096%=      5-min Rain = 0
KAM1 160303Z 05005KT M03/M03 A2993 RMK A01 T10291034  RH  096%=      5-min Rain = 0
KAM1 160304Z 06005KT M03/M03 A2993 RMK A01 T10281033  RH  097%=      5-min Rain = 0
KAM1 160305Z 06005KT M03/M03 A2993 RMK A01 T10281033  RH  097%=      5-min Rain = 0
KAM1 160306Z 07004KT M03/M03 A2993 RMK A01 T10281032  RH  097%=      5-min Rain = 0
KAM1 160307Z 07004KT M03/M03 A2993 RMK A01 T10281032  RH  097%=      5-min Rain = 0
KAM1 160308Z 06004KT M03/M03 A2993 RMK A01 T10281032  RH  097%=      5-min Rain = 0
KAM1 160309Z 06004KT M03/M03 A2993 RMK A01 T10281031  RH  098%=      5-min Rain = 0
KAM1 160310Z 06005KT M03/M03 A2993 RMK A01 T10281031  RH  098%=      5-min Rain = 0
KAM1 160311Z 06005KT M03/M03 A2993 RMK A01 T10281031  RH  098%=      5-min Rain = 0
KAM1 160312Z 06005KT M03/M03 A2993 RMK A01 T10271030  RH  098%=      5-min Rain = 0
KAM1 160313Z 06005KT M03/M03 A2993 RMK A01 T10271030  RH  098%=      5-min Rain = 0
KAM1 160314Z 06005KT M03/M03 A2993 RMK A01 T10271030  RH  098%=      5-min Rain = 0
KAM1 160315Z 06005KT M03/M03 A2993 RMK A01 T10261029  RH  098%=      5-min Rain = 0
KAM1 160316Z 06006KT M03/M03 A2993 RMK A01 T10251028  RH  098%=      5-min Rain = 0
KAM1 160317Z 06005KT M03/M03 A2993 RMK A01 T10251028  RH  098%=      5-min Rain = 0
KAM1 160318Z 06005KT M03/M03 A2993 RMK A01 T10251028  RH  098%=      5-min Rain = 0
KAM1 160319Z 05005KT M02/M03 A2993 RMK A01 T10241027  RH  098%=      5-min Rain = 0
KAM1 160320Z 05004KT M02/M03 A2993 RMK A01 T10241027  RH  098%=      5-min Rain = 0
KAM1 160321Z 05004KT M02/M03 A2993 RMK A01 T10231026  RH  098%=      5-min Rain = 0
KAM1 160322Z 06003KT M02/M03 A2993 RMK A01 T10231026  RH  098%=      5-min Rain = 0
KAM1 160323Z 06003KT M02/M03 A2993 RMK A01 T10231026  RH  098%=      5-min Rain = 0
KAM1 160324Z 06003KT M02/M03 A2993 RMK A01 T10221026  RH  097%=      5-min Rain = 0
KAM1 160325Z 06003KT M02/M03 A2993 RMK A01 T10221026  RH  097%=      5-min Rain = 0
KAM1 160326Z 06004KT M02/M03 A2993 RMK A01 T10211025  RH  097%=      5-min Rain = 0
KAM1 160327Z 06004KT M02/M03 A2993 RMK A01 T10211026  RH  097%=      5-min Rain = 0
KAM1 160328Z 06005KT M02/M03 A2993 RMK A01 T10211026  RH  097%=      5-min Rain = 0
KAM1 160329Z 05004KT M02/M03 A2993 RMK A01 T10211025  RH  097%=      5-min Rain = 0
KAM1 160330Z 05004KT M02/M03 A2993 RMK A01 T10201025  RH  097%=      5-min Rain = 0
KAM1 160331Z 05004KT M02/M03 A2993 RMK A01 T10201025  RH  096%=      5-min Rain = 0
KAM1 160332Z 05005KT M02/M03 A2993 RMK A01 T10201025  RH  096%=      5-min Rain = 0
KAM1 160333Z 05005KT M02/M03 A2993 RMK A01 T10201025  RH  096%=      5-min Rain = 0
KAM1 160334Z 05004KT M02/M03 A2993 RMK A01 T10201025  RH  096%=      5-min Rain = 0
KAM1 160335Z 04003KT M02/M03 A2993 RMK A01 T10191025  RH  096%=      5-min Rain = 0
KAM1 160336Z 05004KT M02/M03 A2994 RMK A01 T10191025  RH  096%=      5-min Rain = 0
KAM1 160337Z 04004KT M02/M03 A2994 RMK A01 T10191025  RH  096%=      5-min Rain = 0
KAM1 160338Z 05006KT M02/M03 A2994 RMK A01 T10191025  RH  095%=      5-min Rain = 0
KAM1 160339Z 05005KT M02/M03 A2994 RMK A01 T10191026  RH  095%=      5-min Rain = 0
KAM1 160340Z 05004KT M02/M03 A2994 RMK A01 T10191026  RH  095%=      5-min Rain = 0
KAM1 160341Z 04004KT M02/M03 A2994 RMK A01 T10181026  RH  095%=      5-min Rain = 0
KAM1 160342Z 05006KT M02/M03 A2994 RMK A01 T10181026  RH  094%=      5-min Rain = 0
KAM1 160343Z 05005KT M02/M03 A2994 RMK A01 T10191027  RH  094%=      5-min Rain = 0
KAM1 160344Z 05005KT M02/M03 A2993 RMK A01 T10191027  RH  094%=      5-min Rain = 0
KAM1 160345Z 04007KT M02/M03 A2993 RMK A01 T10191028  RH  094%=      5-min Rain = 0
KAM1 160346Z 04005KT M02/M03 A2994 RMK A01 T10191028  RH  094%=      5-min Rain = 0
KAM1 160347Z 05006KT M02/M03 A2994 RMK A01 T10201028  RH  094%=      5-min Rain = 0
KAM1 160348Z 05005KT M02/M03 A2993 RMK A01 T10201029  RH  094%=      5-min Rain = 0
KAM1 160349Z 05006KT M02/M03 A2993 RMK A01 T10211029  RH  094%=      5-min Rain = 0
KAM1 160350Z 05006KT M02/M03 A2993 RMK A01 T10211029  RH  094%=      5-min Rain = 0
KAM1 160351Z 06006KT M02/M03 A2993 RMK A01 T10211029  RH  094%=      5-min Rain = 0
KAM1 160352Z 05007KT M02/M03 A2993 RMK A01 T10221030  RH  094%=      5-min Rain = 0
KAM1 160353Z 05006KT M02/M03 A2993 RMK A01 T10221030  RH  094%=      5-min Rain = 0
KAM1 160354Z 05005KT M02/M03 A2993 RMK A01 T10231030  RH  094%=      5-min Rain = 0
KAM1 160355Z 05005KT M02/M03 A2993 RMK A01 T10231031  RH  094%=      5-min Rain = 0
KAM1 160356Z 05005KT M02/M03 A2993 RMK A01 T10241032  RH  094%=      5-min Rain = 0
KAM1 160357Z 05006KT M03/M03 A2993 RMK A01 T10251033  RH  094%=      5-min Rain = 0
KAM1 160358Z 05005KT M03/M03 A2993 RMK A01 T10261033  RH  095%=      5-min Rain = 0
KAM1 160359Z 05006KT M03/M03 A2993 RMK A01 T10261033  RH  095%=      5-min Rain = 0
KAM1 160400Z 05005KT M03/M03 A2993 RMK A01 T10261032  RH  096%=      5-min Rain = 0
KAM1 160401Z 05005KT M03/M03 A2993 RMK A01 T10271032  RH  096%=      5-min Rain = 0
KAM1 160402Z 05005KT M03/M03 A2993 RMK A01 T10271033  RH  096%=      5-min Rain = 0
KAM1 160403Z 05004KT M03/M03 A2993 RMK A01 T10281034  RH  096%=      5-min Rain = 0
KAM1 160404Z 05005KT M03/M04 A2993 RMK A01 T10291035  RH  096%=      5-min Rain = 0
KAM1 160405Z 05005KT M03/M04 A2993 RMK A01 T10301036  RH  096%=      5-min Rain = 0
KAM1 160406Z 04005KT M03/M04 A2993 RMK A01 T10311036  RH  096%=      5-min Rain = 0
KAM1 160407Z 04006KT M03/M04 A2993 RMK A01 T10321037  RH  096%=      5-min Rain = 0
KAM1 160408Z 04005KT M03/M04 A2993 RMK A01 T10321037  RH  097%=      5-min Rain = 0
KAM1 160409Z 04005KT M03/M04 A2993 RMK A01 T10331038  RH  097%=      5-min Rain = 0
KAM1 160410Z 04005KT M03/M04 A2993 RMK A01 T10341038  RH  097%=      5-min Rain = 0
KAM1 160411Z 04005KT M04/M04 A2994 RMK A01 T10351039  RH  097%=      5-min Rain = 0
KAM1 160412Z 04005KT M04/M04 A2994 RMK A01 T10361039  RH  098%=      5-min Rain = 0
KAM1 160413Z 04005KT M04/M04 A2994 RMK A01 T10371039  RH  098%=      5-min Rain = 0
KAM1 160414Z 04005KT M04/M04 A2993 RMK A01 T10371039  RH  098%=      5-min Rain = 0
KAM1 160415Z 04005KT M04/M04 A2993 RMK A01 T10381040  RH  099%=      5-min Rain = 0
KAM1 160416Z 04004KT M04/M04 A2994 RMK A01 T10381040  RH  099%=      5-min Rain = 0
KAM1 160417Z 04004KT M04/M04 A2994 RMK A01 T10381040  RH  099%=      5-min Rain = 0
KAM1 160418Z 04004KT M04/M04 A2994 RMK A01 T10391040  RH  099%=      5-min Rain = 0
KAM1 160419Z 04005KT M04/M04 A2994 RMK A01 T10391039  RH  100%=      5-min Rain = 0
KAM1 160420Z 04005KT M04/M04 A2994 RMK A01 T10391039  RH  100%=      5-min Rain = 0
KAM1 160421Z 04005KT M04/M04 A2994 RMK A01 T10391039  RH  100%=      5-min Rain = 0
KAM1 160422Z 04005KT M04/M04 A2994 RMK A01 T10391039  RH  100%=      5-min Rain = 0
KAM1 160423Z 04006KT M04/M04 A2994 RMK A01 T10391039  RH  100%=      5-min Rain = 0
KAM1 160424Z 04006KT M04/M04 A2994 RMK A01 T10391039  RH  100%=      5-min Rain = 0
KAM1 160425Z 04005KT M04/M04 A2994 RMK A01 T10391039  RH  100%=      5-min Rain = 0
KAM1 160426Z 03004KT M04/M04 A2994 RMK A01 T10381038  RH  100%=      5-min Rain = 0
KAM1 160427Z 03003KT M04/M04 A2994 RMK A01 T10371037  RH  100%=      5-min Rain = 0
KAM1 160428Z 03003KT M04/M04 A2995 RMK A01 T10361036  RH  100%=      5-min Rain = 0
KAM1 160429Z 02003KT M04/M04 A2995 RMK A01 T10351035  RH  100%=      5-min Rain = 0
KAM1 160430Z 03004KT M03/M03 A2995 RMK A01 T10341034  RH  100%=      5-min Rain = 0
KAM1 160431Z 03004KT M03/M03 A2995 RMK A01 T10331033  RH  100%=      5-min Rain = 0
KAM1 160432Z 03005KT M03/M03 A2995 RMK A01 T10311032  RH  100%=      5-min Rain = 0
KAM1 160433Z 03006KT M03/M03 A2995 RMK A01 T10301030  RH  100%=      5-min Rain = 0
KAM1 160434Z 04006KT M03/M03 A2995 RMK A01 T10291029  RH  100%=      5-min Rain = 0
KAM1 160435Z 03006KT M03/M03 A2995 RMK A01 T10271028  RH  100%=      5-min Rain = 0
KAM1 160436Z 03005KT M03/M03 A2995 RMK A01 T10261026  RH  100%=      5-min Rain = 0
KAM1 160437Z 04006KT M03/M03 A2995 RMK A01 T10251025  RH  100%=      5-min Rain = 0
KAM1 160438Z 04008KT M03/M03 A2995 RMK A01 T10251025  RH  100%=      5-min Rain = 0
KAM1 160439Z 04007KT M02/M02 A2995 RMK A01 T10231024  RH  099%=      5-min Rain = 0
KAM1 160440Z 04008KT M02/M03 A2994 RMK A01 T10231025  RH  098%=      5-min Rain = 0
KAM1 160441Z 03008KT M02/M03 A2994 RMK A01 T10221026  RH  097%=      5-min Rain = 0
KAM1 160442Z 03008KT M02/M03 A2994 RMK A01 T10211026  RH  097%=      5-min Rain = 0
KAM1 160443Z 03009KT M02/M03 A2994 RMK A01 T10211026  RH  096%=      5-min Rain = 0
KAM1 160444Z 03008KT M02/M03 A2994 RMK A01 T10201026  RH  096%=      5-min Rain = 0
KAM1 160445Z 03008KT M02/M03 A2994 RMK A01 T10201027  RH  095%=      5-min Rain = 0
KAM1 160446Z 03010KT M02/M03 A2994 RMK A01 T10201027  RH  095%=      5-min Rain = 0
KAM1 160447Z 03009KT M02/M03 A2994 RMK A01 T10201028  RH  094%=      5-min Rain = 0
KAM1 160448Z 03010KT M02/M03 A2994 RMK A01 T10191028  RH  094%=      5-min Rain = 0
KAM1 160449Z 03008KT M02/M03 A2994 RMK A01 T10191029  RH  093%=      5-min Rain = 0
KAM1 160450Z 02009KT M02/M03 A2994 RMK A01 T10191028  RH  093%=      5-min Rain = 0
KAM1 160451Z 03007KT M02/M03 A2995 RMK A01 T10191028  RH  093%=      5-min Rain = 0
KAM1 160452Z 03009KT M02/M03 A2995 RMK A01 T10191029  RH  093%=      5-min Rain = 0
KAM1 160453Z 03009KT M02/M03 A2995 RMK A01 T10191029  RH  093%=      5-min Rain = 0
KAM1 160454Z 03010KT M02/M03 A2995 RMK A01 T10191029  RH  093%=      5-min Rain = 0
KAM1 160455Z 03010KT M02/M03 A2995 RMK A01 T10181029  RH  092%=      5-min Rain = 0
KAM1 160456Z 04010KT M02/M03 A2995 RMK A01 T10181030  RH  092%=      5-min Rain = 0
KAM1 160457Z 04011KT M02/M03 A2995 RMK A01 T10181030  RH  092%=      5-min Rain = 0
KAM1 160458Z 04012KT M02/M03 A2995 RMK A01 T10181030  RH  092%=      5-min Rain = 0
KAM1 160459Z 03010KT M02/M03 A2995 RMK A01 T10181031  RH  091%=      5-min Rain = 0
KAM1 160500Z 03010KT M02/M03 A2995 RMK A01 T10181031  RH  091%=      5-min Rain = 0
KAM1 160501Z 04007KT M02/M03 A2995 RMK A01 T10181031  RH  091%=      5-min Rain = 0
KAM1 160502Z 05008KT M02/M03 A2995 RMK A01 T10181030  RH  092%=      5-min Rain = 0
KAM1 160503Z 04009KT M02/M03 A2995 RMK A01 T10181030  RH  092%=      5-min Rain = 0
KAM1 160504Z 03010KT M02/M03 A2995 RMK A01 T10181030  RH  091%=      5-min Rain = 0
KAM1 160505Z 04011KT M02/M03 A2995 RMK A01 T10181030  RH  091%=      5-min Rain = 0
KAM1 160506Z 04009KT M02/M03 A2995 RMK A01 T10181031  RH  091%=      5-min Rain = 0
KAM1 160507Z 03010KT M02/M03 A2995 RMK A01 T10181031  RH  091%=      5-min Rain = 0
KAM1 160508Z 03012KT M02/M03 A2995 RMK A01 T10181031  RH  091%=      5-min Rain = 0
KAM1 160509Z 04012KT M02/M03 A2995 RMK A01 T10181031  RH  091%=      5-min Rain = 0
KAM1 160510Z 05013KT M02/M03 A2995 RMK A01 T10181032  RH  090%=      5-min Rain = 0
KAM1 160511Z 04011KT M02/M03 A2995 RMK A01 T10181032  RH  090%=      5-min Rain = 0
KAM1 160512Z 04011KT M02/M03 A2995 RMK A01 T10181032  RH  090%=      5-min Rain = 0
KAM1 160513Z 03010KT M02/M03 A2995 RMK A01 T10181032  RH  090%=      5-min Rain = 0
KAM1 160514Z 03010KT M02/M03 A2996 RMK A01 T10181032  RH  090%=      5-min Rain = 0
KAM1 160515Z 04012KT M02/M03 A2996 RMK A01 T10181031  RH  090%=      5-min Rain = 0
KAM1 160516Z 04011KT M02/M03 A2996 RMK A01 T10181032  RH  090%=      5-min Rain = 0
KAM1 160517Z 04013KT M02/M03 A2996 RMK A01 T10181032  RH  090%=      5-min Rain = 0
KAM1 160518Z 04012KT M02/M03 A2996 RMK A01 T10181033  RH  090%=      5-min Rain = 0
KAM1 160519Z 04012KT M02/M03 A2996 RMK A01 T10181032  RH  090%=      5-min Rain = 0
KAM1 160520Z 04012KT M02/M03 A2996 RMK A01 T10181033  RH  090%=      5-min Rain = 0
KAM1 160521Z 04011KT M02/M03 A2996 RMK A01 T10181033  RH  090%=      5-min Rain = 0
KAM1 160522Z 04011KT M02/M03 A2996 RMK A01 T10181033  RH  090%=      5-min Rain = 0
KAM1 160523Z 03010KT M02/M03 A2996 RMK A01 T10181033  RH  090%=      5-min Rain = 0
KAM1 160524Z 03010KT M02/M03 A2996 RMK A01 T10181032  RH  090%=      5-min Rain = 0
KAM1 160525Z 03011KT M02/M03 A2996 RMK A01 T10181032  RH  090%=      5-min Rain = 0
KAM1 160526Z 03010KT M02/M03 A2996 RMK A01 T10181032  RH  090%=      5-min Rain = 0
KAM1 160527Z 03012KT M02/M03 A2996 RMK A01 T10181032  RH  090%=      5-min Rain = 0
KAM1 160528Z 04012KT M02/M03 A2996 RMK A01 T10181033  RH  090%=      5-min Rain = 0
KAM1 160529Z 04012KT M02/M03 A2996 RMK A01 T10181033  RH  089%=      5-min Rain = 0
KAM1 160530Z 04013KT M02/M03 A2996 RMK A01 T10181034  RH  089%=      5-min Rain = 0
KAM1 160531Z 05013KT M02/M03 A2996 RMK A01 T10181034  RH  089%=      5-min Rain = 0
KAM1 160532Z 04014KT M02/M03 A2996 RMK A01 T10181034  RH  089%=      5-min Rain = 0
KAM1 160533Z 04015KT M02/M03 A2996 RMK A01 T10181034  RH  089%=      5-min Rain = 0
KAM1 160534Z 05013KT M02/M03 A2996 RMK A01 T10171034  RH  089%=      5-min Rain = 0
KAM1 160535Z 05013KT M02/M03 A2996 RMK A01 T10181034  RH  089%=      5-min Rain = 0
KAM1 160536Z 04011KT M02/M03 A2996 RMK A01 T10181034  RH  089%=      5-min Rain = 0
KAM1 160537Z 04011KT M02/M03 A2996 RMK A01 T10171034  RH  089%=      5-min Rain = 0
KAM1 160538Z 04011KT M02/M03 A2996 RMK A01 T10171033  RH  089%=      5-min Rain = 0
KAM1 160539Z 04012KT M02/M03 A2996 RMK A01 T10171034  RH  089%=      5-min Rain = 0
KAM1 160540Z 04012KT M02/M03 A2996 RMK A01 T10181034  RH  089%=      5-min Rain = 0
KAM1 160541Z 05014KT M02/M03 A2995 RMK A01 T10181033  RH  089%=      5-min Rain = 0
KAM1 160542Z 04015KT M02/M03 A2995 RMK A01 T10171033  RH  089%=      5-min Rain = 0
KAM1 160543Z 05012KT M02/M03 A2995 RMK A01 T10181033  RH  089%=      5-min Rain = 0
KAM1 160544Z 04011KT M02/M03 A2995 RMK A01 T10181033  RH  089%=      5-min Rain = 0
KAM1 160545Z 04010KT M02/M03 A2996 RMK A01 T10171033  RH  089%=      5-min Rain = 0
KAM1 160546Z 03010KT M02/M03 A2996 RMK A01 T10171033  RH  089%=      5-min Rain = 0
KAM1 160547Z 03010KT M02/M03 A2997 RMK A01 T10171033  RH  089%=      5-min Rain = 0
KAM1 160548Z 04012KT M02/M03 A2997 RMK A01 T10181033  RH  089%=      5-min Rain = 0
KAM1 160549Z 04012KT M02/M03 A2996 RMK A01 T10171033  RH  089%=      5-min Rain = 0
KAM1 160550Z 04015KT M02/M03 A2996 RMK A01 T10171033  RH  089%=      5-min Rain = 0
KAM1 160551Z 05015KT M02/M03 A2995 RMK A01 T10181033  RH  089%=      5-min Rain = 0
KAM1 160552Z 05016KT M02/M03 A2995 RMK A01 T10181033  RH  089%=      5-min Rain = 0
KAM1 160553Z 05010KT M02/M03 A2995 RMK A01 T10181033  RH  089%=      5-min Rain = 0
KAM1 160554Z 04009KT M02/M03 A2996 RMK A01 T10181033  RH  089%=      5-min Rain = 0
KAM1 160555Z 03008KT M02/M03 A2997 RMK A01 T10181033  RH  089%=      5-min Rain = 0
KAM1 160556Z 03007KT M02/M03 A2997 RMK A01 T10181034  RH  089%=      5-min Rain = 0
KAM1 160557Z 02005KT M02/M03 A2997 RMK A01 T10181034  RH  089%=      5-min Rain = 0
KAM1 160558Z 04007KT M02/M03 A2997 RMK A01 T10181034  RH  089%=      5-min Rain = 0
KAM1 160559Z 05012KT M02/M03 A2996 RMK A01 T10191034  RH  089%=      5-min Rain = 0

Page generated in 0.077 seconds.